<?xml version="1.0" encoding="UTF-8"?><gpx version="1.1" creator="Garmin Explore App" xmlns="http://www.topografix.com/GPX/1/1" xmlns:adv="http://www.garmin.com/xmlschemas/AdventuresExtensions/v1" xmlns:gpxtpx="http://www.garmin.com/xmlschemas/TrackPointExtension/v1" xmlns:gpxtrx="http://www.garmin.com/xmlschemas/GpxExtensions/v3" xmlns:gpxx="http://www.garmin.com/xmlschemas/GpxExtensions/v3" xmlns:trp="http://www.garmin.com/xmlschemas/TripExtensions/v1" xmlns:wptx1="http://www.garmin.com/xmlschemas/WaypointExtension/v1" xmlns:xsi="http://www.w3.org/2001/XMLSchema-instance" xsi:schemaLocation="http://www.topografix.com/GPX/1/1 http://www.topografix.com/GPX/1/1/gpx.xsd http://www.garmin.com/xmlschemas/WaypointExtension/v1 http://www8.garmin.com/xmlschemas/WaypointExtensionv1.xsd http://www.garmin.com/xmlschemas/TrackPointExtension/v1 http://www.garmin.com/xmlschemas/TrackPointExtensionv1.xsd http://www.garmin.com/xmlschemas/GpxExtensions/v3 http://www8.garmin.com/xmlschemas/GpxExtensionsv3.xsd http://www.garmin.com/xmlschemas/ActivityExtension/v1 http://www8.garmin.com/xmlschemas/ActivityExtensionv1.xsd http://www.garmin.com/xmlschemas/AdventuresExtensions/v1 http://www8.garmin.com/xmlschemas/AdventuresExtensionv1.xsd http://www.garmin.com/xmlschemas/PressureExtension/v1 http://www.garmin.com/xmlschemas/PressureExtensionv1.xsd"><metadata><name>2026-08-20 132932.gpx</name><link href="http://www.garmin.com"><text>Garmin International</text></link><time>2026-08-20T10:49:16.614Z</time></metadata><trk><name>2026-08-20 13:29:32</name><extensions><gpxx:TrackExtension xmlns:gpxx="http://www.garmin.com/xmlschemas/GpxExtensions/v3"><gpxx:DisplayColor>Cyan</gpxx:DisplayColor></gpxx:TrackExtension></extensions><trkseg><trkpt lat="59.404480224475265" lon="34.71164183691144"><ele>168.85000610351562</ele><time>2026-08-18T03:49:42.000Z</time><extensions/></trkpt><trkpt lat="59.404460191726685" lon="34.711683075875044"><ele>168.85000610351562</ele><time>2026-08-18T03:49:43.000Z</time><extensions/></trkpt><trkpt lat="59.40409013070166" lon="34.71237525343895"><ele>169.3300018310547</ele><time>2026-08-18T03:50:01.000Z</time><extensions/></trkpt><trkpt lat="59.40370112657547" lon="34.712917394936085"><ele>169.80999755859375</ele><time>2026-08-18T03:50:22.000Z</time><extensions/></trkpt><trkpt lat="59.40336308442056" lon="34.7133191395551"><ele>170.2899932861328</ele><time>2026-08-18T03:50:37.000Z</time><extensions/></trkpt><trkpt lat="59.40304943360388" lon="34.71369263716042"><ele>170.77000427246094</ele><time>2026-08-18T03:50:52.000Z</time><extensions/></trkpt><trkpt lat="59.40281515941024" lon="34.71393596380949"><ele>169.80999755859375</ele><time>2026-08-18T03:51:06.000Z</time><extensions/></trkpt><trkpt lat="59.40245809033513" lon="34.71436218358576"><ele>167.41000366210938</ele><time>2026-08-18T03:51:25.000Z</time><extensions/></trkpt><trkpt lat="59.40201477147639" lon="34.714930560439825"><ele>166.4499969482422</ele><time>2026-08-18T03:51:45.000Z</time><extensions/></trkpt><trkpt lat="59.401616463437676" lon="34.71545937471092"><ele>166.92999267578125</ele><time>2026-08-18T03:52:02.000Z</time><extensions/></trkpt><trkpt lat="59.40117557533085" lon="34.71613671630621"><ele>168.3699951171875</ele><time>2026-08-18T03:52:21.000Z</time><extensions/></trkpt><trkpt lat="59.40074197947979" lon="34.71680659800768"><ele>168.3699951171875</ele><time>2026-08-18T03:52:40.000Z</time><extensions/></trkpt><trkpt lat="59.40067098475993" lon="34.71691329963505"><ele>168.3699951171875</ele><time>2026-08-18T03:52:50.000Z</time><extensions/></trkpt><trkpt lat="59.400658160448074" lon="34.71696292050183"><ele>168.3699951171875</ele><time>2026-08-18T03:54:05.000Z</time><extensions/></trkpt><trkpt lat="59.400641564279795" lon="34.71701153554022"><ele>168.3699951171875</ele><time>2026-08-18T03:54:06.000Z</time><extensions/></trkpt><trkpt lat="59.4006172567606" lon="34.71708219498396"><ele>168.3699951171875</ele><time>2026-08-18T03:54:07.000Z</time><extensions/></trkpt><trkpt lat="59.40059093758464" lon="34.717159727588296"><ele>168.3699951171875</ele><time>2026-08-18T03:54:08.000Z</time><extensions/></trkpt><trkpt lat="59.40056562423706" lon="34.717239271849394"><ele>168.3699951171875</ele><time>2026-08-18T03:54:09.000Z</time><extensions/></trkpt><trkpt lat="59.40054173581302" lon="34.717322336509824"><ele>168.3699951171875</ele><time>2026-08-18T03:54:10.000Z</time><extensions/></trkpt><trkpt lat="59.400167651474476" lon="34.718782966956496"><ele>169.80999755859375</ele><time>2026-08-18T03:54:26.000Z</time><extensions/></trkpt><trkpt lat="59.39975316636264" lon="34.720409559085965"><ele>169.80999755859375</ele><time>2026-08-18T03:54:42.000Z</time><extensions/></trkpt><trkpt lat="59.39930213615298" lon="34.722098680213094"><ele>168.3699951171875</ele><time>2026-08-18T03:54:58.000Z</time><extensions/></trkpt><trkpt lat="59.39907188527286" lon="34.724021991714835"><ele>167.88999938964844</ele><time>2026-08-18T03:55:14.000Z</time><extensions/></trkpt><trkpt lat="59.39899384975433" lon="34.72471525892615"><ele>167.88999938964844</ele><time>2026-08-18T03:55:20.000Z</time><extensions/></trkpt><trkpt lat="59.398980690166354" lon="34.72482766024768"><ele>167.88999938964844</ele><time>2026-08-18T03:55:21.000Z</time><extensions/></trkpt><trkpt lat="59.39879251644015" lon="34.726663045585155"><ele>168.3699951171875</ele><time>2026-08-18T03:55:36.000Z</time><extensions/></trkpt><trkpt lat="59.39849051646888" lon="34.729245929047465"><ele>168.3699951171875</ele><time>2026-08-18T03:55:55.000Z</time><extensions/></trkpt><trkpt lat="59.39829396083951" lon="34.73168497905135"><ele>167.88999938964844</ele><time>2026-08-18T03:56:14.000Z</time><extensions/></trkpt><trkpt lat="59.39827007241547" lon="34.73240138031542"><ele>167.41000366210938</ele><time>2026-08-18T03:56:24.000Z</time><extensions/></trkpt><trkpt lat="59.398162784054875" lon="34.73298165947199"><ele>167.41000366210938</ele><time>2026-08-18T03:56:34.000Z</time><extensions/></trkpt><trkpt lat="59.39820796251297" lon="34.73331542685628"><ele>167.41000366210938</ele><time>2026-08-18T03:56:42.000Z</time><extensions/></trkpt><trkpt lat="59.39863267354667" lon="34.73382856696844"><ele>167.41000366210938</ele><time>2026-08-18T03:56:53.000Z</time><extensions/></trkpt><trkpt lat="59.3987643532455" lon="34.733909368515015"><ele>166.4499969482422</ele><time>2026-08-18T03:57:00.000Z</time><extensions/></trkpt><trkpt lat="59.39880131743848" lon="34.73387802019715"><ele>166.4499969482422</ele><time>2026-08-18T03:57:01.000Z</time><extensions/></trkpt><trkpt lat="59.39883886836469" lon="34.73381616175175"><ele>166.4499969482422</ele><time>2026-08-18T03:57:02.000Z</time><extensions/></trkpt><trkpt lat="59.39887834712863" lon="34.73372748121619"><ele>166.92999267578125</ele><time>2026-08-18T03:57:03.000Z</time><extensions/></trkpt><trkpt lat="59.39892201684415" lon="34.733614241704345"><ele>166.92999267578125</ele><time>2026-08-18T03:57:04.000Z</time><extensions/></trkpt><trkpt lat="59.398969961330295" lon="34.73348348401487"><ele>166.92999267578125</ele><time>2026-08-18T03:57:05.000Z</time><extensions/></trkpt><trkpt lat="59.399659875780344" lon="34.73164793103933"><ele>169.80999755859375</ele><time>2026-08-18T03:57:16.000Z</time><extensions/></trkpt><trkpt lat="59.40066427923739" lon="34.728997154161334"><ele>170.77000427246094</ele><time>2026-08-18T03:57:28.000Z</time><extensions/></trkpt><trkpt lat="59.40187714062631" lon="34.72587212920189"><ele>172.2100067138672</ele><time>2026-08-18T03:57:41.000Z</time><extensions/></trkpt><trkpt lat="59.4033592287451" lon="34.72202265635133"><ele>171.25</ele><time>2026-08-18T03:57:54.000Z</time><extensions/></trkpt><trkpt lat="59.40557146444917" lon="34.7162685636431"><ele>171.25</ele><time>2026-08-18T03:58:13.000Z</time><extensions/></trkpt><trkpt lat="59.40729302354157" lon="34.71180159598589"><ele>172.2100067138672</ele><time>2026-08-18T03:58:29.000Z</time><extensions/></trkpt><trkpt lat="59.40899823792279" lon="34.70735549926758"><ele>169.3300018310547</ele><time>2026-08-18T03:58:46.000Z</time><extensions/></trkpt><trkpt lat="59.41067973151803" lon="34.70334283076227"><ele>169.3300018310547</ele><time>2026-08-18T03:59:02.000Z</time><extensions/></trkpt><trkpt lat="59.4123665895313" lon="34.700385024771094"><ele>172.2100067138672</ele><time>2026-08-18T03:59:15.000Z</time><extensions/></trkpt><trkpt lat="59.41388354636729" lon="34.697870034724474"><ele>175.5800018310547</ele><time>2026-08-18T03:59:26.000Z</time><extensions/></trkpt><trkpt lat="59.41650808788836" lon="34.69353977590799"><ele>177.02000427246094</ele><time>2026-08-18T03:59:44.000Z</time><extensions/></trkpt><trkpt lat="59.419489027932286" lon="34.688665363937616"><ele>176.05999755859375</ele><time>2026-08-18T04:00:03.000Z</time><extensions/></trkpt><trkpt lat="59.42277825437486" lon="34.68324696645141"><ele>174.13999938964844</ele><time>2026-08-18T04:00:23.000Z</time><extensions/></trkpt><trkpt lat="59.4254235830158" lon="34.67887345701456"><ele>175.10000610351562</ele><time>2026-08-18T04:00:39.000Z</time><extensions/></trkpt><trkpt lat="59.428312573581934" lon="34.67416441999376"><ele>177.97999572753906</ele><time>2026-08-18T04:00:56.000Z</time><extensions/></trkpt><trkpt lat="59.43053277209401" lon="34.670759523287416"><ele>181.35000610351562</ele><time>2026-08-18T04:01:09.000Z</time><extensions/></trkpt><trkpt lat="59.431526865810156" lon="34.6692580729723"><ele>184.7100067138672</ele><time>2026-08-18T04:01:15.000Z</time><extensions/></trkpt><trkpt lat="59.43169073201716" lon="34.669011225923896"><ele>185.19000244140625</ele><time>2026-08-18T04:01:16.000Z</time><extensions/></trkpt><trkpt lat="59.433167120441794" lon="34.666801169514656"><ele>181.8300018310547</ele><time>2026-08-18T04:01:25.000Z</time><extensions/></trkpt><trkpt lat="59.435935243964195" lon="34.662618935108185"><ele>181.35000610351562</ele><time>2026-08-18T04:01:42.000Z</time><extensions/></trkpt><trkpt lat="59.4394370354712" lon="34.65727262198925"><ele>181.8300018310547</ele><time>2026-08-18T04:02:03.000Z</time><extensions/></trkpt><trkpt lat="59.442223347723484" lon="34.65305124409497"><ele>179.4199981689453</ele><time>2026-08-18T04:02:20.000Z</time><extensions/></trkpt><trkpt lat="59.444016152992845" lon="34.650318659842014"><ele>182.7899932861328</ele><time>2026-08-18T04:02:30.000Z</time><extensions/></trkpt><trkpt lat="59.44736103527248" lon="34.64524358510971"><ele>184.22999572753906</ele><time>2026-08-18T04:02:48.000Z</time><extensions/></trkpt><trkpt lat="59.451660783961415" lon="34.63870829902589"><ele>181.35000610351562</ele><time>2026-08-18T04:03:11.000Z</time><extensions/></trkpt><trkpt lat="59.453837648034096" lon="34.635438434779644"><ele>182.30999755859375</ele><time>2026-08-18T04:03:24.000Z</time><extensions/></trkpt><trkpt lat="59.45509996265173" lon="34.63295713998377"><ele>185.19000244140625</ele><time>2026-08-18T04:03:33.000Z</time><extensions/></trkpt><trkpt lat="59.455857183784246" lon="34.629784086719155"><ele>186.14999389648438</ele><time>2026-08-18T04:03:42.000Z</time><extensions/></trkpt><trkpt lat="59.457205748185515" lon="34.623233545571566"><ele>187.58999633789062</ele><time>2026-08-18T04:03:59.000Z</time><extensions/></trkpt><trkpt lat="59.45860493928194" lon="34.61652089841664"><ele>187.11000061035156</ele><time>2026-08-18T04:04:16.000Z</time><extensions/></trkpt><trkpt lat="59.45975057780743" lon="34.61107215844095"><ele>190.47999572753906</ele><time>2026-08-18T04:04:30.000Z</time><extensions/></trkpt><trkpt lat="59.46105538867414" lon="34.60622599348426"><ele>190.9600067138672</ele><time>2026-08-18T04:04:43.000Z</time><extensions/></trkpt><trkpt lat="59.46249875240028" lon="34.60213243961334"><ele>188.0800018310547</ele><time>2026-08-18T04:04:54.000Z</time><extensions/></trkpt><trkpt lat="59.46465851739049" lon="34.59616427309811"><ele>186.6300048828125</ele><time>2026-08-18T04:05:10.000Z</time><extensions/></trkpt><trkpt lat="59.46654955856502" lon="34.590982580557466"><ele>189.52000427246094</ele><time>2026-08-18T04:05:24.000Z</time><extensions/></trkpt><trkpt lat="59.46954156272113" lon="34.58283109590411"><ele>191.9199981689453</ele><time>2026-08-18T04:05:46.000Z</time><extensions/></trkpt><trkpt lat="59.47185412980616" lon="34.57654517143965"><ele>193.36000061035156</ele><time>2026-08-18T04:06:03.000Z</time><extensions/></trkpt><trkpt lat="59.47409603744745" lon="34.57041791640222"><ele>192.8800048828125</ele><time>2026-08-18T04:06:19.000Z</time><extensions/></trkpt><trkpt lat="59.47662804275751" lon="34.563465379178524"><ele>192.8800048828125</ele><time>2026-08-18T04:06:38.000Z</time><extensions/></trkpt><trkpt lat="59.47905401699245" lon="34.55683303065598"><ele>196.25</ele><time>2026-08-18T04:06:56.000Z</time><extensions/></trkpt><trkpt lat="59.48147119022906" lon="34.55021166242659"><ele>198.1699981689453</ele><time>2026-08-18T04:07:13.000Z</time><extensions/></trkpt><trkpt lat="59.48427066206932" lon="34.54254247248173"><ele>198.64999389648438</ele><time>2026-08-18T04:07:33.000Z</time><extensions/></trkpt><trkpt lat="59.48575601913035" lon="34.53787718899548"><ele>202.00999450683594</ele><time>2026-08-18T04:07:45.000Z</time><extensions/></trkpt><trkpt lat="59.487436674535275" lon="34.53259122557938"><ele>201.52999877929688</ele><time>2026-08-18T04:07:59.000Z</time><extensions/></trkpt><trkpt lat="59.48939342983067" lon="34.52680285088718"><ele>201.0500030517578</ele><time>2026-08-18T04:08:15.000Z</time><extensions/></trkpt><trkpt lat="59.49027495458722" lon="34.52324029058218"><ele>202.00999450683594</ele><time>2026-08-18T04:08:24.000Z</time><extensions/></trkpt><trkpt lat="59.49124398641288" lon="34.518221877515316"><ele>202.97999572753906</ele><time>2026-08-18T04:08:37.000Z</time><extensions/></trkpt><trkpt lat="59.49142822064459" lon="34.51425648294389"><ele>202.49000549316406</ele><time>2026-08-18T04:08:47.000Z</time><extensions/></trkpt><trkpt lat="59.49134289287031" lon="34.50987249612808"><ele>201.52999877929688</ele><time>2026-08-18T04:08:58.000Z</time><extensions/></trkpt><trkpt lat="59.490552647039294" lon="34.50493446551263"><ele>202.97999572753906</ele><time>2026-08-18T04:09:10.000Z</time><extensions/></trkpt><trkpt lat="59.4895404484123" lon="34.49850889854133"><ele>200.08999633789062</ele><time>2026-08-18T04:09:25.000Z</time><extensions/></trkpt><trkpt lat="59.48941932991147" lon="34.49767263606191"><ele>199.61000061035156</ele><time>2026-08-18T04:09:27.000Z</time><extensions/></trkpt><trkpt lat="59.489000737667084" lon="34.49300634674728"><ele>198.64999389648438</ele><time>2026-08-18T04:09:38.000Z</time><extensions/></trkpt><trkpt lat="59.48893267661333" lon="34.48740337975323"><ele>199.61000061035156</ele><time>2026-08-18T04:09:50.000Z</time><extensions/></trkpt><trkpt lat="59.48908128775656" lon="34.47939111851156"><ele>202.97999572753906</ele><time>2026-08-18T04:10:07.000Z</time><extensions/></trkpt><trkpt lat="59.48918589390814" lon="34.47403114289045"><ele>202.49000549316406</ele><time>2026-08-18T04:10:20.000Z</time><extensions/></trkpt><trkpt lat="59.48929502628744" lon="34.46948152966797"><ele>202.00999450683594</ele><time>2026-08-18T04:10:33.000Z</time><extensions/></trkpt><trkpt lat="59.48936426080763" lon="34.463861463591456"><ele>202.00999450683594</ele><time>2026-08-18T04:10:48.000Z</time><extensions/></trkpt><trkpt lat="59.489485966041684" lon="34.45656057447195"><ele>204.4199981689453</ele><time>2026-08-18T04:11:06.000Z</time><extensions/></trkpt><trkpt lat="59.48956626467407" lon="34.45097588002682"><ele>207.77999877929688</ele><time>2026-08-18T04:11:20.000Z</time><extensions/></trkpt><trkpt lat="59.48961513116956" lon="34.447774747386575"><ele>211.14999389648438</ele><time>2026-08-18T04:11:28.000Z</time><extensions/></trkpt><trkpt lat="59.489655029028654" lon="34.44579326547682"><ele>214.50999450683594</ele><time>2026-08-18T04:11:33.000Z</time><extensions/></trkpt><trkpt lat="59.4897735491395" lon="34.43933006376028"><ele>215.9499969482422</ele><time>2026-08-18T04:11:49.000Z</time><extensions/></trkpt><trkpt lat="59.48986583389342" lon="34.432782623916864"><ele>214.50999450683594</ele><time>2026-08-18T04:12:04.000Z</time><extensions/></trkpt><trkpt lat="59.48990296572447" lon="34.43017912097275"><ele>211.14999389648438</ele><time>2026-08-18T04:12:10.000Z</time><extensions/></trkpt><trkpt lat="59.49016992934048" lon="34.42449577152729"><ele>210.6699981689453</ele><time>2026-08-18T04:12:23.000Z</time><extensions/></trkpt><trkpt lat="59.490655325353146" lon="34.41655785776675"><ele>212.11000061035156</ele><time>2026-08-18T04:12:40.000Z</time><extensions/></trkpt><trkpt lat="59.49099705554545" lon="34.410973666235805"><ele>214.99000549316406</ele><time>2026-08-18T04:12:52.000Z</time><extensions/></trkpt><trkpt lat="59.491479517892" lon="34.40362583845854"><ele>214.02999877929688</ele><time>2026-08-18T04:13:09.000Z</time><extensions/></trkpt><trkpt lat="59.49189509265125" lon="34.39676064066589"><ele>211.14999389648438</ele><time>2026-08-18T04:13:25.000Z</time><extensions/></trkpt><trkpt lat="59.492020569741726" lon="34.394586542621255"><ele>207.77999877929688</ele><time>2026-08-18T04:13:30.000Z</time><extensions/></trkpt><trkpt lat="59.49218049645424" lon="34.39193098805845"><ele>204.89999389648438</ele><time>2026-08-18T04:13:36.000Z</time><extensions/></trkpt><trkpt lat="59.49253714643419" lon="34.386100033298135"><ele>202.00999450683594</ele><time>2026-08-18T04:13:49.000Z</time><extensions/></trkpt><trkpt lat="59.49299354106188" lon="34.37844199128449"><ele>201.0500030517578</ele><time>2026-08-18T04:14:06.000Z</time><extensions/></trkpt><trkpt lat="59.49352445080876" lon="34.369742162525654"><ele>202.49000549316406</ele><time>2026-08-18T04:14:25.000Z</time><extensions/></trkpt><trkpt lat="59.493865594267845" lon="34.364308174699545"><ele>202.97999572753906</ele><time>2026-08-18T04:14:37.000Z</time><extensions/></trkpt><trkpt lat="59.494188129901886" lon="34.35948338359594"><ele>200.57000732421875</ele><time>2026-08-18T04:14:49.000Z</time><extensions/></trkpt><trkpt lat="59.49462323449552" lon="34.35480812564492"><ele>203.4600067138672</ele><time>2026-08-18T04:15:01.000Z</time><extensions/></trkpt><trkpt lat="59.49529462493956" lon="34.35081917792559"><ele>205.3800048828125</ele><time>2026-08-18T04:15:12.000Z</time><extensions/></trkpt><trkpt lat="59.49649122543633" lon="34.3443307466805"><ele>204.89999389648438</ele><time>2026-08-18T04:15:31.000Z</time><extensions/></trkpt><trkpt lat="59.49785655364394" lon="34.340716637670994"><ele>205.3800048828125</ele><time>2026-08-18T04:15:40.000Z</time><extensions/></trkpt><trkpt lat="59.49868502095342" lon="34.33737359941006"><ele>208.25999450683594</ele><time>2026-08-18T04:15:48.000Z</time><extensions/></trkpt><trkpt lat="59.50029241852462" lon="34.33116805739701"><ele>206.33999633789062</ele><time>2026-08-18T04:16:03.000Z</time><extensions/></trkpt><trkpt lat="59.502091677859426" lon="34.32409272529185"><ele>204.4199981689453</ele><time>2026-08-18T04:16:20.000Z</time><extensions/></trkpt><trkpt lat="59.503131955862045" lon="34.31890214793384"><ele>204.4199981689453</ele><time>2026-08-18T04:16:32.000Z</time><extensions/></trkpt><trkpt lat="59.503743248060346" lon="34.31348651647568"><ele>202.49000549316406</ele><time>2026-08-18T04:16:44.000Z</time><extensions/></trkpt><trkpt lat="59.50392588973045" lon="34.308368945494294"><ele>199.1300048828125</ele><time>2026-08-18T04:16:55.000Z</time><extensions/></trkpt><trkpt lat="59.50372061692178" lon="34.30329445749521"><ele>198.1699981689453</ele><time>2026-08-18T04:17:06.000Z</time><extensions/></trkpt><trkpt lat="59.50300027616322" lon="34.29657803848386"><ele>195.27999877929688</ele><time>2026-08-18T04:17:21.000Z</time><extensions/></trkpt><trkpt lat="59.502117997035384" lon="34.28851716220379"><ele>195.27999877929688</ele><time>2026-08-18T04:17:40.000Z</time><extensions/></trkpt><trkpt lat="59.50136521831155" lon="34.28160653449595"><ele>193.36000061035156</ele><time>2026-08-18T04:17:57.000Z</time><extensions/></trkpt><trkpt lat="59.50066021643579" lon="34.275272162631154"><ele>190.0</ele><time>2026-08-18T04:18:13.000Z</time><extensions/></trkpt><trkpt lat="59.50020742602646" lon="34.26979199051857"><ele>190.47999572753906</ele><time>2026-08-18T04:18:26.000Z</time><extensions/></trkpt><trkpt lat="59.50017808936536" lon="34.26444978453219"><ele>190.9600067138672</ele><time>2026-08-18T04:18:38.000Z</time><extensions/></trkpt><trkpt lat="59.500504145398736" lon="34.259613174945116"><ele>190.47999572753906</ele><time>2026-08-18T04:18:49.000Z</time><extensions/></trkpt><trkpt lat="59.500610092654824" lon="34.256366193294525"><ele>190.0</ele><time>2026-08-18T04:18:58.000Z</time><extensions/></trkpt><trkpt lat="59.500279258936644" lon="34.253384079784155"><ele>189.52000427246094</ele><time>2026-08-18T04:19:07.000Z</time><extensions/></trkpt><trkpt lat="59.49944257736206" lon="34.250584775581956"><ele>190.0</ele><time>2026-08-18T04:19:16.000Z</time><extensions/></trkpt><trkpt lat="59.497986724600196" lon="34.24793751910329"><ele>191.9199981689453</ele><time>2026-08-18T04:19:26.000Z</time><extensions/></trkpt><trkpt lat="59.49650983326137" lon="34.24565973691642"><ele>194.8000030517578</ele><time>2026-08-18T04:19:35.000Z</time><extensions/></trkpt><trkpt lat="59.49365143664181" lon="34.24124482087791"><ele>196.72999572753906</ele><time>2026-08-18T04:19:51.000Z</time><extensions/></trkpt><trkpt lat="59.490433037281036" lon="34.23624535091221"><ele>194.8000030517578</ele><time>2026-08-18T04:20:09.000Z</time><extensions/></trkpt><trkpt lat="59.487091172486544" lon="34.23104748129845"><ele>192.8800048828125</ele><time>2026-08-18T04:20:27.000Z</time><extensions/></trkpt><trkpt lat="59.484638376161456" lon="34.226512955501676"><ele>194.32000732421875</ele><time>2026-08-18T04:20:41.000Z</time><extensions/></trkpt><trkpt lat="59.48294162750244" lon="34.22236181795597"><ele>194.8000030517578</ele><time>2026-08-18T04:20:53.000Z</time><extensions/></trkpt><trkpt lat="59.481147062033415" lon="34.21642969362438"><ele>194.32000732421875</ele><time>2026-08-18T04:21:09.000Z</time><extensions/></trkpt><trkpt lat="59.47960479184985" lon="34.21113543212414"><ele>193.36000061035156</ele><time>2026-08-18T04:21:24.000Z</time><extensions/></trkpt><trkpt lat="59.47847608476877" lon="34.206450283527374"><ele>190.9600067138672</ele><time>2026-08-18T04:21:38.000Z</time><extensions/></trkpt><trkpt lat="59.47767217643559" lon="34.20177058316767"><ele>194.32000732421875</ele><time>2026-08-18T04:21:51.000Z</time><extensions/></trkpt><trkpt lat="59.4774005189538" lon="34.1996019333601"><ele>197.69000244140625</ele><time>2026-08-18T04:21:57.000Z</time><extensions/></trkpt><trkpt lat="59.47708049789071" lon="34.19608765281737"><ele>200.57000732421875</ele><time>2026-08-18T04:22:06.000Z</time><extensions/></trkpt><trkpt lat="59.476682525128126" lon="34.19119178317487"><ele>203.94000244140625</ele><time>2026-08-18T04:22:17.000Z</time><extensions/></trkpt><trkpt lat="59.476287653669715" lon="34.185122195631266"><ele>204.4199981689453</ele><time>2026-08-18T04:22:31.000Z</time><extensions/></trkpt><trkpt lat="59.47634506970644" lon="34.18243302963674"><ele>201.0500030517578</ele><time>2026-08-18T04:22:37.000Z</time><extensions/></trkpt><trkpt lat="59.476816384121776" lon="34.17702351696789"><ele>199.61000061035156</ele><time>2026-08-18T04:22:49.000Z</time><extensions/></trkpt><trkpt lat="59.477783823385835" lon="34.172275168821216"><ele>198.64999389648438</ele><time>2026-08-18T04:23:00.000Z</time><extensions/></trkpt><trkpt lat="59.47946313768625" lon="34.16678166948259"><ele>198.64999389648438</ele><time>2026-08-18T04:23:14.000Z</time><extensions/></trkpt><trkpt lat="59.48155542835593" lon="34.16039826348424"><ele>196.72999572753906</ele><time>2026-08-18T04:23:30.000Z</time><extensions/></trkpt><trkpt lat="59.48368962854147" lon="34.15501808747649"><ele>195.77000427246094</ele><time>2026-08-18T04:23:44.000Z</time><extensions/></trkpt><trkpt lat="59.48687114752829" lon="34.14817191660404"><ele>195.27999877929688</ele><time>2026-08-18T04:24:03.000Z</time><extensions/></trkpt><trkpt lat="59.488549791276455" lon="34.14455906488001"><ele>192.39999389648438</ele><time>2026-08-18T04:24:13.000Z</time><extensions/></trkpt><trkpt lat="59.49235215783119" lon="34.13650439120829"><ele>192.39999389648438</ele><time>2026-08-18T04:24:35.000Z</time><extensions/></trkpt><trkpt lat="59.49356325902045" lon="34.133939277380705"><ele>189.0399932861328</ele><time>2026-08-18T04:24:42.000Z</time><extensions/></trkpt><trkpt lat="59.496671352535486" lon="34.12725361995399"><ele>189.52000427246094</ele><time>2026-08-18T04:25:00.000Z</time><extensions/></trkpt><trkpt lat="59.4998895842582" lon="34.120367551222444"><ele>192.39999389648438</ele><time>2026-08-18T04:25:18.000Z</time><extensions/></trkpt><trkpt lat="59.50240122154355" lon="34.11500606685877"><ele>189.52000427246094</ele><time>2026-08-18T04:25:32.000Z</time><extensions/></trkpt><trkpt lat="59.50511796399951" lon="34.10924459807575"><ele>189.52000427246094</ele><time>2026-08-18T04:25:48.000Z</time><extensions/></trkpt><trkpt lat="59.50781626626849" lon="34.10428527742624"><ele>188.55999755859375</ele><time>2026-08-18T04:26:02.000Z</time><extensions/></trkpt><trkpt lat="59.509829599410295" lon="34.10086805932224"><ele>185.19000244140625</ele><time>2026-08-18T04:26:12.000Z</time><extensions/></trkpt><trkpt lat="59.512058682739735" lon="34.09713593311608"><ele>181.8300018310547</ele><time>2026-08-18T04:26:23.000Z</time><extensions/></trkpt><trkpt lat="59.51369985938072" lon="34.09437459893525"><ele>178.94000244140625</ele><time>2026-08-18T04:26:31.000Z</time><extensions/></trkpt><trkpt lat="59.51575007289648" lon="34.0909025631845"><ele>175.5800018310547</ele><time>2026-08-18T04:26:41.000Z</time><extensions/></trkpt><trkpt lat="59.5186950545758" lon="34.085909044370055"><ele>172.69000244140625</ele><time>2026-08-18T04:26:56.000Z</time><extensions/></trkpt><trkpt lat="59.52003439888358" lon="34.0836204495281"><ele>169.3300018310547</ele><time>2026-08-18T04:27:03.000Z</time><extensions/></trkpt><trkpt lat="59.520985996350646" lon="34.082000479102135"><ele>165.47999572753906</ele><time>2026-08-18T04:27:08.000Z</time><extensions/></trkpt><trkpt lat="59.52306873165071" lon="34.07845778390765"><ele>162.60000610351562</ele><time>2026-08-18T04:27:19.000Z</time><extensions/></trkpt><trkpt lat="59.524937476962805" lon="34.075263775885105"><ele>159.24000549316406</ele><time>2026-08-18T04:27:29.000Z</time><extensions/></trkpt><trkpt lat="59.52835653908551" lon="34.06941664405167"><ele>157.30999755859375</ele><time>2026-08-18T04:27:48.000Z</time><extensions/></trkpt><trkpt lat="59.53203787095845" lon="34.063123846426606"><ele>154.42999267578125</ele><time>2026-08-18T04:28:08.000Z</time><extensions/></trkpt><trkpt lat="59.53369899652898" lon="34.06030903570354"><ele>150.5800018310547</ele><time>2026-08-18T04:28:17.000Z</time><extensions/></trkpt><trkpt lat="59.53521109186113" lon="34.05775833874941"><ele>147.6999969482422</ele><time>2026-08-18T04:28:25.000Z</time><extensions/></trkpt><trkpt lat="59.53714513219893" lon="34.05447581782937"><ele>144.82000732421875</ele><time>2026-08-18T04:28:35.000Z</time><extensions/></trkpt><trkpt lat="59.53852026723325" lon="34.05217733234167"><ele>141.4499969482422</ele><time>2026-08-18T04:28:42.000Z</time><extensions/></trkpt><trkpt lat="59.53949038870633" lon="34.05056188814342"><ele>138.08999633789062</ele><time>2026-08-18T04:28:47.000Z</time><extensions/></trkpt><trkpt lat="59.539874363690615" lon="34.04992016963661"><ele>137.1300048828125</ele><time>2026-08-18T04:28:49.000Z</time><extensions/></trkpt><trkpt lat="59.54207779839635" lon="34.04609936289489"><ele>134.24000549316406</ele><time>2026-08-18T04:29:01.000Z</time><extensions/></trkpt><trkpt lat="59.54425516538322" lon="34.041657792404294"><ele>131.83999633789062</ele><time>2026-08-18T04:29:14.000Z</time><extensions/></trkpt><trkpt lat="59.54621988348663" lon="34.0363731700927"><ele>132.8000030517578</ele><time>2026-08-18T04:29:28.000Z</time><extensions/></trkpt><trkpt lat="59.54801118001342" lon="34.031273955479264"><ele>130.8800048828125</ele><time>2026-08-18T04:29:42.000Z</time><extensions/></trkpt><trkpt lat="59.54887066036463" lon="34.02916884049773"><ele>127.98999786376953</ele><time>2026-08-18T04:29:48.000Z</time><extensions/></trkpt><trkpt lat="59.54960416071117" lon="34.02749774046242"><ele>124.62999725341797</ele><time>2026-08-18T04:29:53.000Z</time><extensions/></trkpt><trkpt lat="59.5503521617502" lon="34.02587098069489"><ele>121.26000213623047</ele><time>2026-08-18T04:29:58.000Z</time><extensions/></trkpt><trkpt lat="59.55097183585167" lon="34.02459466829896"><ele>118.37999725341797</ele><time>2026-08-18T04:30:02.000Z</time><extensions/></trkpt><trkpt lat="59.553346345201135" lon="34.02022819966078"><ele>117.41999816894531</ele><time>2026-08-18T04:30:17.000Z</time><extensions/></trkpt><trkpt lat="59.553991835564375" lon="34.019238632172346"><ele>120.77999877929688</ele><time>2026-08-18T04:30:21.000Z</time><extensions/></trkpt><trkpt lat="59.55673288553953" lon="34.01531497947872"><ele>123.66999816894531</ele><time>2026-08-18T04:30:38.000Z</time><extensions/></trkpt><trkpt lat="59.55924443900585" lon="34.01233948767185"><ele>126.06999969482422</ele><time>2026-08-18T04:30:52.000Z</time><extensions/></trkpt><trkpt lat="59.56186629831791" lon="34.00963104330003"><ele>126.06999969482422</ele><time>2026-08-18T04:31:06.000Z</time><extensions/></trkpt><trkpt lat="59.565200535580516" lon="34.006224973127246"><ele>125.58999633789062</ele><time>2026-08-18T04:31:24.000Z</time><extensions/></trkpt><trkpt lat="59.567783921957016" lon="34.00332307443023"><ele>127.98999786376953</ele><time>2026-08-18T04:31:38.000Z</time><extensions/></trkpt><trkpt lat="59.56917271949351" lon="34.0006045717746"><ele>127.02999877929688</ele><time>2026-08-18T04:31:47.000Z</time><extensions/></trkpt><trkpt lat="59.57013881765306" lon="33.99736295454204"><ele>125.11000061035156</ele><time>2026-08-18T04:31:56.000Z</time><extensions/></trkpt><trkpt lat="59.57060795277357" lon="33.99377164430916"><ele>125.11000061035156</ele><time>2026-08-18T04:32:05.000Z</time><extensions/></trkpt><trkpt lat="59.57056746818125" lon="33.98998788557947"><ele>125.58999633789062</ele><time>2026-08-18T04:32:14.000Z</time><extensions/></trkpt><trkpt lat="59.570108726620674" lon="33.98565284907818"><ele>121.73999786376953</ele><time>2026-08-18T04:32:24.000Z</time><extensions/></trkpt><trkpt lat="59.56919719465077" lon="33.977580489590764"><ele>120.77999877929688</ele><time>2026-08-18T04:32:42.000Z</time><extensions/></trkpt><trkpt lat="59.568488420918584" lon="33.97113329730928"><ele>119.81999969482422</ele><time>2026-08-18T04:32:57.000Z</time><extensions/></trkpt><trkpt lat="59.56811207346618" lon="33.96764793433249"><ele>116.45999908447266</ele><time>2026-08-18T04:33:05.000Z</time><extensions/></trkpt><trkpt lat="59.567826921120286" lon="33.965049125254154"><ele>113.08999633789062</ele><time>2026-08-18T04:33:11.000Z</time><extensions/></trkpt><trkpt lat="59.56758535467088" lon="33.96285692229867"><ele>110.69000244140625</ele><time>2026-08-18T04:33:16.000Z</time><extensions/></trkpt><trkpt lat="59.56696065142751" lon="33.956978023052216"><ele>110.20999908447266</ele><time>2026-08-18T04:33:30.000Z</time><extensions/></trkpt><trkpt lat="59.5664222817868" lon="33.951426185667515"><ele>110.20999908447266</ele><time>2026-08-18T04:33:45.000Z</time><extensions/></trkpt><trkpt lat="59.56630342639983" lon="33.95013243891299"><ele>111.16999816894531</ele><time>2026-08-18T04:33:52.000Z</time><extensions/></trkpt><trkpt lat="59.56604995764792" lon="33.94760495983064"><ele>112.61000061035156</ele><time>2026-08-18T04:34:03.000Z</time><extensions/></trkpt><trkpt lat="59.56577251665294" lon="33.94480557180941"><ele>115.9800033569336</ele><time>2026-08-18T04:34:13.000Z</time><extensions/></trkpt><trkpt lat="59.56538242287934" lon="33.941049724817276"><ele>117.41999816894531</ele><time>2026-08-18T04:34:25.000Z</time><extensions/></trkpt><trkpt lat="59.564921921119094" lon="33.93663086928427"><ele>120.77999877929688</ele><time>2026-08-18T04:34:37.000Z</time><extensions/></trkpt><trkpt lat="59.56424198113382" lon="33.93009088933468"><ele>118.86000061035156</ele><time>2026-08-18T04:34:53.000Z</time><extensions/></trkpt><trkpt lat="59.56396613270044" lon="33.92754815518856"><ele>116.45999908447266</ele><time>2026-08-18T04:34:59.000Z</time><extensions/></trkpt><trkpt lat="59.56343287602067" lon="33.922305358573794"><ele>113.56999969482422</ele><time>2026-08-18T04:35:11.000Z</time><extensions/></trkpt><trkpt lat="59.563058875501156" lon="33.91872301697731"><ele>110.20999908447266</ele><time>2026-08-18T04:35:19.000Z</time><extensions/></trkpt><trkpt lat="59.56236124970019" lon="33.91203375533223"><ele>109.25</ele><time>2026-08-18T04:35:34.000Z</time><extensions/></trkpt><trkpt lat="59.561877781525254" lon="33.905788818374276"><ele>106.36000061035156</ele><time>2026-08-18T04:35:49.000Z</time><extensions/></trkpt><trkpt lat="59.56201725639403" lon="33.90098204836249"><ele>105.4000015258789</ele><time>2026-08-18T04:36:00.000Z</time><extensions/></trkpt><trkpt lat="59.56213904544711" lon="33.89723936095834"><ele>102.04000091552734</ele><time>2026-08-18T04:36:08.000Z</time><extensions/></trkpt><trkpt lat="59.56220651976764" lon="33.89533373527229"><ele>98.66999816894531</ele><time>2026-08-18T04:36:12.000Z</time><extensions/></trkpt><trkpt lat="59.562256475910544" lon="33.89390101656318"><ele>95.79000091552734</ele><time>2026-08-18T04:36:15.000Z</time><extensions/></trkpt><trkpt lat="59.56230626441538" lon="33.89243669807911"><ele>92.41999816894531</ele><time>2026-08-18T04:36:18.000Z</time><extensions/></trkpt><trkpt lat="59.5623866468668" lon="33.89001508243382"><ele>89.05999755859375</ele><time>2026-08-18T04:36:23.000Z</time><extensions/></trkpt><trkpt lat="59.562573144212365" lon="33.88437582179904"><ele>88.0999984741211</ele><time>2026-08-18T04:36:35.000Z</time><extensions/></trkpt><trkpt lat="59.56278998404741" lon="33.87755102477968"><ele>89.05999755859375</ele><time>2026-08-18T04:36:49.000Z</time><extensions/></trkpt><trkpt lat="59.56302258186042" lon="33.870922699570656"><ele>89.54000091552734</ele><time>2026-08-18T04:37:03.000Z</time><extensions/></trkpt><trkpt lat="59.563295328989625" lon="33.86264246888459"><ele>88.58000183105469</ele><time>2026-08-18T04:37:20.000Z</time><extensions/></trkpt><trkpt lat="59.56344427540898" lon="33.857915494591"><ele>87.62000274658203</ele><time>2026-08-18T04:37:30.000Z</time><extensions/></trkpt><trkpt lat="59.56353295594454" lon="33.85521249845624"><ele>84.7300033569336</ele><time>2026-08-18T04:37:37.000Z</time><extensions/></trkpt><trkpt lat="59.563805954530835" lon="33.84889958426356"><ele>87.13999938964844</ele><time>2026-08-18T04:37:52.000Z</time><extensions/></trkpt><trkpt lat="59.564108876511455" lon="33.84646849706769"><ele>90.0199966430664</ele><time>2026-08-18T04:37:58.000Z</time><extensions/></trkpt><trkpt lat="59.56474179401994" lon="33.84178695268929"><ele>92.9000015258789</ele><time>2026-08-18T04:38:09.000Z</time><extensions/></trkpt><trkpt lat="59.56559549085796" lon="33.835504883900285"><ele>93.38999938964844</ele><time>2026-08-18T04:38:23.000Z</time><extensions/></trkpt><trkpt lat="59.56602254882455" lon="33.83224516175687"><ele>90.5</ele><time>2026-08-18T04:38:30.000Z</time><extensions/></trkpt><trkpt lat="59.56628448329866" lon="33.830343056470156"><ele>87.13999938964844</ele><time>2026-08-18T04:38:34.000Z</time><extensions/></trkpt><trkpt lat="59.566604336723685" lon="33.82799536921084"><ele>83.29000091552734</ele><time>2026-08-18T04:38:39.000Z</time><extensions/></trkpt><trkpt lat="59.56755777820945" lon="33.82108046673238"><ele>82.80999755859375</ele><time>2026-08-18T04:38:54.000Z</time><extensions/></trkpt><trkpt lat="59.56801668740809" lon="33.81785293109715"><ele>79.44999694824219</ele><time>2026-08-18T04:39:01.000Z</time><extensions/></trkpt><trkpt lat="59.56830343231559" lon="33.81565687246621"><ele>76.08000183105469</ele><time>2026-08-18T04:39:06.000Z</time><extensions/></trkpt><trkpt lat="59.568894021213055" lon="33.81121287122369"><ele>73.19999694824219</ele><time>2026-08-18T04:39:17.000Z</time><extensions/></trkpt><trkpt lat="59.56951377913356" lon="33.807409666478634"><ele>76.55999755859375</ele><time>2026-08-18T04:39:27.000Z</time><extensions/></trkpt><trkpt lat="59.57028918899596" lon="33.803097093477845"><ele>79.44999694824219</ele><time>2026-08-18T04:39:40.000Z</time><extensions/></trkpt><trkpt lat="59.571111956611276" lon="33.798856772482395"><ele>82.80999755859375</ele><time>2026-08-18T04:39:53.000Z</time><extensions/></trkpt><trkpt lat="59.57128873094916" lon="33.79644948989153"><ele>83.29000091552734</ele><time>2026-08-18T04:40:00.000Z</time><extensions/></trkpt><trkpt lat="59.57133466377854" lon="33.79350978881121"><ele>79.44999694824219</ele><time>2026-08-18T04:40:08.000Z</time><extensions/></trkpt><trkpt lat="59.57135402597487" lon="33.79205184057355"><ele>76.55999755859375</ele><time>2026-08-18T04:40:12.000Z</time><extensions/></trkpt><trkpt lat="59.57166566513479" lon="33.78854434937239"><ele>73.19999694824219</ele><time>2026-08-18T04:40:22.000Z</time><extensions/></trkpt><trkpt lat="59.57181394100189" lon="33.78750893287361"><ele>72.23999786376953</ele><time>2026-08-18T04:40:25.000Z</time><extensions/></trkpt><trkpt lat="59.572536293417215" lon="33.78250074572861"><ele>74.16000366210938</ele><time>2026-08-18T04:40:40.000Z</time><extensions/></trkpt><trkpt lat="59.57289327867329" lon="33.780101174488664"><ele>77.5199966430664</ele><time>2026-08-18T04:40:47.000Z</time><extensions/></trkpt><trkpt lat="59.57362116314471" lon="33.7752328813076"><ele>77.5199966430664</ele><time>2026-08-18T04:41:00.000Z</time><extensions/></trkpt><trkpt lat="59.5744813978672" lon="33.76968037337065"><ele>76.08000183105469</ele><time>2026-08-18T04:41:13.000Z</time><extensions/></trkpt><trkpt lat="59.5753432251513" lon="33.76674134284258"><ele>77.04000091552734</ele><time>2026-08-18T04:41:21.000Z</time><extensions/></trkpt><trkpt lat="59.576781056821346" lon="33.76372016966343"><ele>78.4800033569336</ele><time>2026-08-18T04:41:30.000Z</time><extensions/></trkpt><trkpt lat="59.57899807021022" lon="33.7592214345932"><ele>75.12000274658203</ele><time>2026-08-18T04:41:43.000Z</time><extensions/></trkpt><trkpt lat="59.579684967175126" lon="33.757824590429664"><ele>71.76000213623047</ele><time>2026-08-18T04:41:47.000Z</time><extensions/></trkpt><trkpt lat="59.58238913677633" lon="33.752334443852305"><ele>70.79000091552734</ele><time>2026-08-18T04:42:03.000Z</time><extensions/></trkpt><trkpt lat="59.58482114598155" lon="33.74719348736107"><ele>68.38999938964844</ele><time>2026-08-18T04:42:18.000Z</time><extensions/></trkpt><trkpt lat="59.58683825097978" lon="33.74301753938198"><ele>68.38999938964844</ele><time>2026-08-18T04:42:30.000Z</time><extensions/></trkpt><trkpt lat="59.58806754089892" lon="33.7396749202162"><ele>67.91000366210938</ele><time>2026-08-18T04:42:39.000Z</time><extensions/></trkpt><trkpt lat="59.589244443923235" lon="33.735294956713915"><ele>68.38999938964844</ele><time>2026-08-18T04:42:50.000Z</time><extensions/></trkpt><trkpt lat="59.59067397750914" lon="33.72983624227345"><ele>67.43000030517578</ele><time>2026-08-18T04:43:04.000Z</time><extensions/></trkpt><trkpt lat="59.591494565829635" lon="33.726230347529054"><ele>67.91000366210938</ele><time>2026-08-18T04:43:13.000Z</time><extensions/></trkpt><trkpt lat="59.59189731627703" lon="33.724889662116766"><ele>69.83000183105469</ele><time>2026-08-18T04:43:17.000Z</time><extensions/></trkpt><trkpt lat="59.592024218291044" lon="33.724623369053006"><ele>70.30999755859375</ele><time>2026-08-18T04:43:18.000Z</time><extensions/></trkpt><trkpt lat="59.59216235205531" lon="33.724391274154186"><ele>70.79000091552734</ele><time>2026-08-18T04:43:19.000Z</time><extensions/></trkpt><trkpt lat="59.59230685606599" lon="33.724190443754196"><ele>71.2699966430664</ele><time>2026-08-18T04:43:20.000Z</time><extensions/></trkpt><trkpt lat="59.592465441673994" lon="33.72402532026172"><ele>71.76000213623047</ele><time>2026-08-18T04:43:21.000Z</time><extensions/></trkpt><trkpt lat="59.592636516317725" lon="33.723888946697116"><ele>72.23999786376953</ele><time>2026-08-18T04:43:22.000Z</time><extensions/></trkpt><trkpt lat="59.5928227622062" lon="33.72378543019295"><ele>72.72000122070312</ele><time>2026-08-18T04:43:23.000Z</time><extensions/></trkpt><trkpt lat="59.59302677772939" lon="33.723722146824"><ele>73.19999694824219</ele><time>2026-08-18T04:43:24.000Z</time><extensions/></trkpt><trkpt lat="59.5932231657207" lon="33.72369674965739"><ele>73.19999694824219</ele><time>2026-08-18T04:43:25.000Z</time><extensions/></trkpt><trkpt lat="59.59341854788363" lon="33.72370068915188"><ele>74.16000366210938</ele><time>2026-08-18T04:43:26.000Z</time><extensions/></trkpt><trkpt lat="59.593614768236876" lon="33.72371192090213"><ele>74.63999938964844</ele><time>2026-08-18T04:43:27.000Z</time><extensions/></trkpt><trkpt lat="59.59617535583675" lon="33.72373237274587"><ele>75.12000274658203</ele><time>2026-08-18T04:43:40.000Z</time><extensions/></trkpt><trkpt lat="59.597847796976566" lon="33.722827630117536"><ele>71.76000213623047</ele><time>2026-08-18T04:43:48.000Z</time><extensions/></trkpt><trkpt lat="59.598604179918766" lon="33.72197384946048"><ele>68.38999938964844</ele><time>2026-08-18T04:43:52.000Z</time><extensions/></trkpt><trkpt lat="59.59944932721555" lon="33.72069778852165"><ele>65.02999877929688</ele><time>2026-08-18T04:43:57.000Z</time><extensions/></trkpt><trkpt lat="59.602175541222095" lon="33.716227719560266"><ele>65.98999786376953</ele><time>2026-08-18T04:44:14.000Z</time><extensions/></trkpt><trkpt lat="59.605310624465346" lon="33.711070753633976"><ele>68.38999938964844</ele><time>2026-08-18T04:44:33.000Z</time><extensions/></trkpt><trkpt lat="59.60792787373066" lon="33.70673286728561"><ele>71.76000213623047</ele><time>2026-08-18T04:44:48.000Z</time><extensions/></trkpt><trkpt lat="59.60926814004779" lon="33.703891821205616"><ele>75.12000274658203</ele><time>2026-08-18T04:44:56.000Z</time><extensions/></trkpt><trkpt lat="59.60958522744477" lon="33.70314356870949"><ele>75.5999984741211</ele><time>2026-08-18T04:44:58.000Z</time><extensions/></trkpt><trkpt lat="59.61235092021525" lon="33.69661096483469"><ele>74.16000366210938</ele><time>2026-08-18T04:45:16.000Z</time><extensions/></trkpt><trkpt lat="59.614644879475236" lon="33.69094379246235"><ele>75.12000274658203</ele><time>2026-08-18T04:45:31.000Z</time><extensions/></trkpt><trkpt lat="59.61661999113858" lon="33.685273099690676"><ele>75.5999984741211</ele><time>2026-08-18T04:45:45.000Z</time><extensions/></trkpt><trkpt lat="59.61851488798857" lon="33.67946209385991"><ele>73.19999694824219</ele><time>2026-08-18T04:45:59.000Z</time><extensions/></trkpt><trkpt lat="59.62032018229365" lon="33.673964235931635"><ele>71.2699966430664</ele><time>2026-08-18T04:46:12.000Z</time><extensions/></trkpt><trkpt lat="59.62139784358442" lon="33.66974822245538"><ele>68.87000274658203</ele><time>2026-08-18T04:46:22.000Z</time><extensions/></trkpt><trkpt lat="59.6217770408839" lon="33.665848542004824"><ele>65.98999786376953</ele><time>2026-08-18T04:46:31.000Z</time><extensions/></trkpt><trkpt lat="59.621918024495244" lon="33.661230616271496"><ele>67.43000030517578</ele><time>2026-08-18T04:46:43.000Z</time><extensions/></trkpt><trkpt lat="59.6219998318702" lon="33.66017156280577"><ele>66.47000122070312</ele><time>2026-08-18T04:46:46.000Z</time><extensions/></trkpt><trkpt lat="59.62204685434699" lon="33.65984357893467"><ele>66.47000122070312</ele><time>2026-08-18T04:46:47.000Z</time><extensions/></trkpt><trkpt lat="59.62210359983146" lon="33.659529592841864"><ele>66.47000122070312</ele><time>2026-08-18T04:46:48.000Z</time><extensions/></trkpt><trkpt lat="59.6221671346575" lon="33.65923228673637"><ele>65.98999786376953</ele><time>2026-08-18T04:46:49.000Z</time><extensions/></trkpt><trkpt lat="59.622242068871856" lon="33.658947218209505"><ele>65.98999786376953</ele><time>2026-08-18T04:46:50.000Z</time><extensions/></trkpt><trkpt lat="59.62231457233429" lon="33.65866642445326"><ele>65.98999786376953</ele><time>2026-08-18T04:46:51.000Z</time><extensions/></trkpt><trkpt lat="59.62336717173457" lon="33.65513873286545"><ele>66.94999694824219</ele><time>2026-08-18T04:47:03.000Z</time><extensions/></trkpt><trkpt lat="59.623713763430715" lon="33.65263036452234"><ele>66.94999694824219</ele><time>2026-08-18T04:47:10.000Z</time><extensions/></trkpt><trkpt lat="59.62379154749215" lon="33.650032225996256"><ele>63.58000183105469</ele><time>2026-08-18T04:47:17.000Z</time><extensions/></trkpt><trkpt lat="59.62381116114557" lon="33.64862658083439"><ele>60.220001220703125</ele><time>2026-08-18T04:47:21.000Z</time><extensions/></trkpt><trkpt lat="59.62387184612453" lon="33.64732788875699"><ele>57.81999969482422</ele><time>2026-08-18T04:47:25.000Z</time><extensions/></trkpt><trkpt lat="59.62432614527643" lon="33.64453537389636"><ele>60.70000076293945</ele><time>2026-08-18T04:47:34.000Z</time><extensions/></trkpt><trkpt lat="59.62468044832349" lon="33.64344388246536"><ele>63.58000183105469</ele><time>2026-08-18T04:47:38.000Z</time><extensions/></trkpt><trkpt lat="59.62528453208506" lon="33.642218532040715"><ele>66.94999694824219</ele><time>2026-08-18T04:47:43.000Z</time><extensions/></trkpt><trkpt lat="59.62651055306196" lon="33.64047082141042"><ele>70.30999755859375</ele><time>2026-08-18T04:47:51.000Z</time><extensions/></trkpt><trkpt lat="59.62912319228053" lon="33.637035582214594"><ele>70.79000091552734</ele><time>2026-08-18T04:48:06.000Z</time><extensions/></trkpt><trkpt lat="59.63052506558597" lon="33.63518209196627"><ele>67.43000030517578</ele><time>2026-08-18T04:48:14.000Z</time><extensions/></trkpt><trkpt lat="59.6323193795979" lon="33.63216167315841"><ele>65.98999786376953</ele><time>2026-08-18T04:48:25.000Z</time><extensions/></trkpt><trkpt lat="59.6332382876426" lon="33.63022293895483"><ele>69.3499984741211</ele><time>2026-08-18T04:48:31.000Z</time><extensions/></trkpt><trkpt lat="59.63427638635039" lon="33.62790836021304"><ele>72.72000122070312</ele><time>2026-08-18T04:48:38.000Z</time><extensions/></trkpt><trkpt lat="59.6358216740191" lon="33.62338833510876"><ele>75.5999984741211</ele><time>2026-08-18T04:48:50.000Z</time><extensions/></trkpt><trkpt lat="59.637636272236705" lon="33.61818367615342"><ele>76.08000183105469</ele><time>2026-08-18T04:49:04.000Z</time><extensions/></trkpt><trkpt lat="59.63901299983263" lon="33.61570028588176"><ele>76.08000183105469</ele><time>2026-08-18T04:49:12.000Z</time><extensions/></trkpt><trkpt lat="59.64056155644357" lon="33.61394972540438"><ele>75.12000274658203</ele><time>2026-08-18T04:49:20.000Z</time><extensions/></trkpt><trkpt lat="59.64243767783046" lon="33.61269646324217"><ele>73.19999694824219</ele><time>2026-08-18T04:49:29.000Z</time><extensions/></trkpt><trkpt lat="59.64509935118258" lon="33.61201518215239"><ele>70.30999755859375</ele><time>2026-08-18T04:49:41.000Z</time><extensions/></trkpt><trkpt lat="59.648570297285914" lon="33.61120984889567"><ele>67.91000366210938</ele><time>2026-08-18T04:49:56.000Z</time><extensions/></trkpt><trkpt lat="59.65190654620528" lon="33.610397977754474"><ele>66.47000122070312</ele><time>2026-08-18T04:50:10.000Z</time><extensions/></trkpt><trkpt lat="59.65375592932105" lon="33.609947953373194"><ele>63.099998474121094</ele><time>2026-08-18T04:50:18.000Z</time><extensions/></trkpt><trkpt lat="59.65515964664519" lon="33.60962038859725"><ele>60.220001220703125</ele><time>2026-08-18T04:50:25.000Z</time><extensions/></trkpt><trkpt lat="59.6578236669302" lon="33.60884556546807"><ele>62.619998931884766</ele><time>2026-08-18T04:50:38.000Z</time><extensions/></trkpt><trkpt lat="59.659510273486376" lon="33.60758802853525"><ele>65.02999877929688</ele><time>2026-08-18T04:50:46.000Z</time><extensions/></trkpt><trkpt lat="59.66222919523716" lon="33.60443718731403"><ele>65.98999786376953</ele><time>2026-08-18T04:51:00.000Z</time><extensions/></trkpt><trkpt lat="59.663765262812376" lon="33.601652551442385"><ele>65.98999786376953</ele><time>2026-08-18T04:51:09.000Z</time><extensions/></trkpt><trkpt lat="59.66570097953081" lon="33.5970756970346"><ele>67.43000030517578</ele><time>2026-08-18T04:51:22.000Z</time><extensions/></trkpt><trkpt lat="59.66789687052369" lon="33.59180205501616"><ele>68.87000274658203</ele><time>2026-08-18T04:51:38.000Z</time><extensions/></trkpt><trkpt lat="59.66987919062376" lon="33.58700827695429"><ele>69.83000183105469</ele><time>2026-08-18T04:51:52.000Z</time><extensions/></trkpt><trkpt lat="59.67239468358457" lon="33.58101949095726"><ele>68.38999938964844</ele><time>2026-08-18T04:52:09.000Z</time><extensions/></trkpt><trkpt lat="59.67496826313436" lon="33.57484119012952"><ele>65.51000213623047</ele><time>2026-08-18T04:52:26.000Z</time><extensions/></trkpt><trkpt lat="59.67750906944275" lon="33.568611424416304"><ele>67.91000366210938</ele><time>2026-08-18T04:52:43.000Z</time><extensions/></trkpt><trkpt lat="59.67885914258659" lon="33.56418368406594"><ele>68.38999938964844</ele><time>2026-08-18T04:52:54.000Z</time><extensions/></trkpt><trkpt lat="59.6798721794039" lon="33.559336848556995"><ele>65.98999786376953</ele><time>2026-08-18T04:53:05.000Z</time><extensions/></trkpt><trkpt lat="59.68068799003959" lon="33.55386556126177"><ele>65.02999877929688</ele><time>2026-08-18T04:53:17.000Z</time><extensions/></trkpt><trkpt lat="59.681470189243555" lon="33.548728460446"><ele>67.91000366210938</ele><time>2026-08-18T04:53:28.000Z</time><extensions/></trkpt><trkpt lat="59.68269939534366" lon="33.54063397273421"><ele>67.43000030517578</ele><time>2026-08-18T04:53:45.000Z</time><extensions/></trkpt><trkpt lat="59.68361159786582" lon="33.53441099636257"><ele>67.43000030517578</ele><time>2026-08-18T04:53:58.000Z</time><extensions/></trkpt><trkpt lat="59.68451122753322" lon="33.52811065502465"><ele>67.91000366210938</ele><time>2026-08-18T04:54:11.000Z</time><extensions/></trkpt><trkpt lat="59.68482839874923" lon="33.52285763248801"><ele>65.98999786376953</ele><time>2026-08-18T04:54:22.000Z</time><extensions/></trkpt><trkpt lat="59.684799732640386" lon="33.51770284585655"><ele>62.619998931884766</ele><time>2026-08-18T04:54:33.000Z</time><extensions/></trkpt><trkpt lat="59.68470694497228" lon="33.512899344787"><ele>59.2599983215332</ele><time>2026-08-18T04:54:43.000Z</time><extensions/></trkpt><trkpt lat="59.68465195968747" lon="33.50991379469633"><ele>56.369998931884766</ele><time>2026-08-18T04:54:49.000Z</time><extensions/></trkpt><trkpt lat="59.68454827554524" lon="33.50553399883211"><ele>53.0099983215332</ele><time>2026-08-18T04:54:58.000Z</time><extensions/></trkpt><trkpt lat="59.68439773656428" lon="33.49715519696474"><ele>50.130001068115234</ele><time>2026-08-18T04:55:16.000Z</time><extensions/></trkpt><trkpt lat="59.68443394638598" lon="33.493247386068106"><ele>48.68000030517578</ele><time>2026-08-18T04:55:26.000Z</time><extensions/></trkpt><trkpt lat="59.68452237546444" lon="33.49207391962409"><ele>47.720001220703125</ele><time>2026-08-18T04:55:31.000Z</time><extensions/></trkpt><trkpt lat="59.684562692418694" lon="33.491931427270174"><ele>47.2400016784668</ele><time>2026-08-18T04:55:32.000Z</time><extensions/></trkpt><trkpt lat="59.68460854142904" lon="33.49181114695966"><ele>47.2400016784668</ele><time>2026-08-18T04:55:33.000Z</time><extensions/></trkpt><trkpt lat="59.68466117978096" lon="33.4917002543807"><ele>46.7599983215332</ele><time>2026-08-18T04:55:34.000Z</time><extensions/></trkpt><trkpt lat="59.684720523655415" lon="33.49159497767687"><ele>46.7599983215332</ele><time>2026-08-18T04:55:35.000Z</time><extensions/></trkpt><trkpt lat="59.68478917144239" lon="33.49149975925684"><ele>46.7599983215332</ele><time>2026-08-18T04:55:36.000Z</time><extensions/></trkpt><trkpt lat="59.68486343510449" lon="33.49140236154199"><ele>46.279998779296875</ele><time>2026-08-18T04:55:37.000Z</time><extensions/></trkpt><trkpt lat="59.6850925963372" lon="33.49102232605219"><ele>46.7599983215332</ele><time>2026-08-18T04:55:40.000Z</time><extensions/></trkpt><trkpt lat="59.685156466439366" lon="33.490851083770394"><ele>46.7599983215332</ele><time>2026-08-18T04:55:41.000Z</time><extensions/></trkpt><trkpt lat="59.68520659022033" lon="33.49066282622516"><ele>46.7599983215332</ele><time>2026-08-18T04:55:42.000Z</time><extensions/></trkpt><trkpt lat="59.685240453109145" lon="33.490454368293285"><ele>46.7599983215332</ele><time>2026-08-18T04:55:43.000Z</time><extensions/></trkpt><trkpt lat="59.68525771982968" lon="33.4902292303741"><ele>46.7599983215332</ele><time>2026-08-18T04:55:44.000Z</time><extensions/></trkpt><trkpt lat="59.68524464406073" lon="33.489995962008834"><ele>46.7599983215332</ele><time>2026-08-18T04:55:45.000Z</time><extensions/></trkpt><trkpt lat="59.68522452749312" lon="33.48976713605225"><ele>47.2400016784668</ele><time>2026-08-18T04:55:46.000Z</time><extensions/></trkpt><trkpt lat="59.685186222195625" lon="33.48955079913139"><ele>47.2400016784668</ele><time>2026-08-18T04:55:47.000Z</time><extensions/></trkpt><trkpt lat="59.68512478284538" lon="33.489360362291336"><ele>47.2400016784668</ele><time>2026-08-18T04:55:48.000Z</time><extensions/></trkpt><trkpt lat="59.6850632596761" lon="33.489191299304366"><ele>47.2400016784668</ele><time>2026-08-18T04:55:49.000Z</time><extensions/></trkpt><trkpt lat="59.684974662959576" lon="33.48903472535312"><ele>47.2400016784668</ele><time>2026-08-18T04:55:50.000Z</time><extensions/></trkpt><trkpt lat="59.68489285558462" lon="33.488869769498706"><ele>47.2400016784668</ele><time>2026-08-18T04:55:51.000Z</time><extensions/></trkpt><trkpt lat="59.68473058193922" lon="33.48828446120024"><ele>47.2400016784668</ele><time>2026-08-18T04:55:54.000Z</time><extensions/></trkpt><trkpt lat="59.684719434008" lon="33.48810005933046"><ele>47.720001220703125</ele><time>2026-08-18T04:55:55.000Z</time><extensions/></trkpt><trkpt lat="59.68472613953054" lon="33.487939881160855"><ele>47.720001220703125</ele><time>2026-08-18T04:55:56.000Z</time><extensions/></trkpt><trkpt lat="59.68473359942436" lon="33.487808369100094"><ele>47.2400016784668</ele><time>2026-08-18T04:55:57.000Z</time><extensions/></trkpt><trkpt lat="59.68475019559264" lon="33.48771474324167"><ele>47.2400016784668</ele><time>2026-08-18T04:55:58.000Z</time><extensions/></trkpt><trkpt lat="59.68476813286543" lon="33.48765389062464"><ele>47.2400016784668</ele><time>2026-08-18T04:55:59.000Z</time><extensions/></trkpt><trkpt lat="59.68477986752987" lon="33.48761918954551"><ele>46.7599983215332</ele><time>2026-08-18T04:56:00.000Z</time><extensions/></trkpt><trkpt lat="59.68478565104306" lon="33.48760636523366"><ele>46.7599983215332</ele><time>2026-08-18T04:56:01.000Z</time><extensions/></trkpt><trkpt lat="59.68480233103037" lon="33.48744694143534"><ele>46.279998779296875</ele><time>2026-08-18T04:56:13.000Z</time><extensions/></trkpt><trkpt lat="59.6848248783499" lon="33.487438475713134"><ele>46.279998779296875</ele><time>2026-08-18T04:56:20.000Z</time><extensions/></trkpt><trkpt lat="59.11292536184192" lon="30.482139699161053"><ele>58.29999923706055</ele><time>2026-08-20T05:36:39.000Z</time><extensions/></trkpt><trkpt lat="59.11288538016379" lon="30.482076751068234"><ele>59.7400016784668</ele><time>2026-08-20T05:37:03.000Z</time><extensions/></trkpt><trkpt lat="59.11292896606028" lon="30.482128718867898"><ele>59.7400016784668</ele><time>2026-08-20T05:38:57.000Z</time><extensions/></trkpt><trkpt lat="59.112892588600516" lon="30.482146320864558"><ele>59.2599983215332</ele><time>2026-08-20T05:42:13.000Z</time><extensions/></trkpt><trkpt lat="59.11288135685027" lon="30.48210675828159"><ele>59.2599983215332</ele><time>2026-08-20T05:42:36.000Z</time><extensions/></trkpt><trkpt lat="59.11286157555878" lon="30.48209125176072"><ele>58.779998779296875</ele><time>2026-08-20T05:43:06.000Z</time><extensions/></trkpt><trkpt lat="59.11286786198616" lon="30.48211799003184"><ele>59.2599983215332</ele><time>2026-08-20T05:43:17.000Z</time><extensions/></trkpt><trkpt lat="59.112896444275975" lon="30.48218202777207"><ele>58.779998779296875</ele><time>2026-08-20T05:43:35.000Z</time><extensions/></trkpt><trkpt lat="59.11291723139584" lon="30.482328459620476"><ele>58.779998779296875</ele><time>2026-08-20T05:43:53.000Z</time><extensions/></trkpt><trkpt lat="59.11300792358816" lon="30.48261595889926"><ele>58.779998779296875</ele><time>2026-08-20T05:44:16.000Z</time><extensions/></trkpt><trkpt lat="59.11303306929767" lon="30.48266147263348"><ele>58.779998779296875</ele><time>2026-08-20T05:44:19.000Z</time><extensions/></trkpt><trkpt lat="59.11317866295576" lon="30.483117448166013"><ele>58.779998779296875</ele><time>2026-08-20T05:44:42.000Z</time><extensions/></trkpt><trkpt lat="59.11318067461252" lon="30.483331521973014"><ele>59.2599983215332</ele><time>2026-08-20T05:44:57.000Z</time><extensions/></trkpt><trkpt lat="59.11321705207229" lon="30.483530089259148"><ele>58.779998779296875</ele><time>2026-08-20T05:45:17.000Z</time><extensions/></trkpt><trkpt lat="59.113252088427544" lon="30.483705522492528"><ele>58.779998779296875</ele><time>2026-08-20T05:45:42.000Z</time><extensions/></trkpt><trkpt lat="59.11328167654574" lon="30.48437305726111"><ele>58.779998779296875</ele><time>2026-08-20T05:46:16.000Z</time><extensions/></trkpt><trkpt lat="59.11333448253572" lon="30.484966998919845"><ele>59.2599983215332</ele><time>2026-08-20T05:46:47.000Z</time><extensions/></trkpt><trkpt lat="59.11336951889098" lon="30.48527612350881"><ele>58.779998779296875</ele><time>2026-08-20T05:47:12.000Z</time><extensions/></trkpt><trkpt lat="59.113400196656585" lon="30.485736457630992"><ele>58.779998779296875</ele><time>2026-08-20T05:47:41.000Z</time><extensions/></trkpt><trkpt lat="59.11345082335174" lon="30.48629494383931"><ele>58.779998779296875</ele><time>2026-08-20T05:48:08.000Z</time><extensions/></trkpt><trkpt lat="59.11342358216643" lon="30.486856196075678"><ele>58.29999923706055</ele><time>2026-08-20T05:48:33.000Z</time><extensions/></trkpt><trkpt lat="59.11343188025057" lon="30.486906990408897"><ele>58.29999923706055</ele><time>2026-08-20T05:48:36.000Z</time><extensions/></trkpt><trkpt lat="59.113441687077284" lon="30.48696423880756"><ele>58.779998779296875</ele><time>2026-08-20T05:48:39.000Z</time><extensions/></trkpt><trkpt lat="59.11342886276543" lon="30.4873229842633"><ele>58.779998779296875</ele><time>2026-08-20T05:48:51.000Z</time><extensions/></trkpt><trkpt lat="59.11347328685224" lon="30.487675946205854"><ele>59.2599983215332</ele><time>2026-08-20T05:49:08.000Z</time><extensions/></trkpt><trkpt lat="59.11351293325424" lon="30.488046929240227"><ele>59.2599983215332</ele><time>2026-08-20T05:49:28.000Z</time><extensions/></trkpt><trkpt lat="59.113531624898314" lon="30.48849619925022"><ele>58.779998779296875</ele><time>2026-08-20T05:49:50.000Z</time><extensions/></trkpt><trkpt lat="59.11354419775307" lon="30.48883818089962"><ele>58.779998779296875</ele><time>2026-08-20T05:50:10.000Z</time><extensions/></trkpt><trkpt lat="59.113575126975775" lon="30.489153675734997"><ele>59.2599983215332</ele><time>2026-08-20T05:50:31.000Z</time><extensions/></trkpt><trkpt lat="59.11355081945658" lon="30.4893003590405"><ele>59.2599983215332</ele><time>2026-08-20T05:50:43.000Z</time><extensions/></trkpt><trkpt lat="59.11355576477945" lon="30.48946112394333"><ele>59.2599983215332</ele><time>2026-08-20T05:50:59.000Z</time><extensions/></trkpt><trkpt lat="59.11360437981784" lon="30.489665642380714"><ele>59.2599983215332</ele><time>2026-08-20T05:51:11.000Z</time><extensions/></trkpt><trkpt lat="59.11361938342452" lon="30.489916345104575"><ele>59.2599983215332</ele><time>2026-08-20T05:51:30.000Z</time><extensions/></trkpt><trkpt lat="59.11362147890031" lon="30.490065794438124"><ele>59.2599983215332</ele><time>2026-08-20T05:51:40.000Z</time><extensions/></trkpt><trkpt lat="59.113640170544386" lon="30.49024592153728"><ele>59.2599983215332</ele><time>2026-08-20T05:51:48.000Z</time><extensions/></trkpt><trkpt lat="59.113657269626856" lon="30.490561919286847"><ele>59.2599983215332</ele><time>2026-08-20T05:52:01.000Z</time><extensions/></trkpt><trkpt lat="59.11365022882819" lon="30.490815555676818"><ele>59.2599983215332</ele><time>2026-08-20T05:52:20.000Z</time><extensions/></trkpt><trkpt lat="59.113691467791796" lon="30.49108922481537"><ele>59.2599983215332</ele><time>2026-08-20T05:52:37.000Z</time><extensions/></trkpt><trkpt lat="59.1137017775327" lon="30.491314362734556"><ele>59.2599983215332</ele><time>2026-08-20T05:52:53.000Z</time><extensions/></trkpt><trkpt lat="59.11371233873069" lon="30.491393320262432"><ele>59.2599983215332</ele><time>2026-08-20T05:52:57.000Z</time><extensions/></trkpt><trkpt lat="59.113709069788456" lon="30.49165265634656"><ele>59.2599983215332</ele><time>2026-08-20T05:53:13.000Z</time><extensions/></trkpt><trkpt lat="59.11370244808495" lon="30.491718873381615"><ele>59.7400016784668</ele><time>2026-08-20T05:53:44.000Z</time><extensions/></trkpt><trkpt lat="59.11370395682752" lon="30.491713089868426"><ele>59.2599983215332</ele><time>2026-08-20T05:54:26.000Z</time><extensions/></trkpt><trkpt lat="59.11372776143253" lon="30.491889780387282"><ele>59.7400016784668</ele><time>2026-08-20T05:55:47.000Z</time><extensions/></trkpt><trkpt lat="59.1137535776943" lon="30.492108883336186"><ele>59.7400016784668</ele><time>2026-08-20T05:56:02.000Z</time><extensions/></trkpt><trkpt lat="59.11374578252435" lon="30.492232935503125"><ele>59.7400016784668</ele><time>2026-08-20T05:56:20.000Z</time><extensions/></trkpt><trkpt lat="59.11375424824655" lon="30.492333518341184"><ele>60.220001220703125</ele><time>2026-08-20T05:56:58.000Z</time><extensions/></trkpt><trkpt lat="59.11376288160682" lon="30.492342486977577"><ele>59.7400016784668</ele><time>2026-08-20T05:57:40.000Z</time><extensions/></trkpt><trkpt lat="59.11380998790264" lon="30.492458324879408"><ele>60.220001220703125</ele><time>2026-08-20T05:57:53.000Z</time><extensions/></trkpt><trkpt lat="59.11380998790264" lon="30.492626382037997"><ele>60.220001220703125</ele><time>2026-08-20T05:58:04.000Z</time><extensions/></trkpt><trkpt lat="59.11379682831466" lon="30.492891585454345"><ele>60.220001220703125</ele><time>2026-08-20T05:58:21.000Z</time><extensions/></trkpt><trkpt lat="59.113828763365746" lon="30.49311026930809"><ele>60.220001220703125</ele><time>2026-08-20T05:58:32.000Z</time><extensions/></trkpt><trkpt lat="59.113855669274926" lon="30.49348653294146"><ele>60.220001220703125</ele><time>2026-08-20T05:58:49.000Z</time><extensions/></trkpt><trkpt lat="59.11385206505656" lon="30.493757938966155"><ele>60.220001220703125</ele><time>2026-08-20T05:59:04.000Z</time><extensions/></trkpt><trkpt lat="59.11387385800481" lon="30.494031524285674"><ele>60.220001220703125</ele><time>2026-08-20T05:59:19.000Z</time><extensions/></trkpt><trkpt lat="59.11387335509062" lon="30.494076367467642"><ele>60.220001220703125</ele><time>2026-08-20T05:59:21.000Z</time><extensions/></trkpt><trkpt lat="59.11390864290297" lon="30.494415499269962"><ele>60.70000076293945</ele><time>2026-08-20T05:59:36.000Z</time><extensions/></trkpt><trkpt lat="59.11394577473402" lon="30.49458439461887"><ele>60.220001220703125</ele><time>2026-08-20T05:59:53.000Z</time><extensions/></trkpt><trkpt lat="59.11396547220647" lon="30.49500851891935"><ele>60.70000076293945</ele><time>2026-08-20T06:00:11.000Z</time><extensions/></trkpt><trkpt lat="59.11396446637809" lon="30.495352260768414"><ele>60.70000076293945</ele><time>2026-08-20T06:00:29.000Z</time><extensions/></trkpt><trkpt lat="59.113997826352715" lon="30.495630959048867"><ele>60.70000076293945</ele><time>2026-08-20T06:00:50.000Z</time><extensions/></trkpt><trkpt lat="59.1140001732856" lon="30.495618972927332"><ele>60.220001220703125</ele><time>2026-08-20T06:01:16.000Z</time><extensions/></trkpt><trkpt lat="59.113993886858225" lon="30.495694996789098"><ele>60.70000076293945</ele><time>2026-08-20T06:01:48.000Z</time><extensions/></trkpt><trkpt lat="59.114002184942365" lon="30.495850229635835"><ele>60.70000076293945</ele><time>2026-08-20T06:01:57.000Z</time><extensions/></trkpt><trkpt lat="59.113966561853886" lon="30.496167987585068"><ele>60.70000076293945</ele><time>2026-08-20T06:02:18.000Z</time><extensions/></trkpt><trkpt lat="59.11401676945388" lon="30.496336547657847"><ele>60.70000076293945</ele><time>2026-08-20T06:02:40.000Z</time><extensions/></trkpt><trkpt lat="59.114022217690945" lon="30.496660927310586"><ele>60.70000076293945</ele><time>2026-08-20T06:02:59.000Z</time><extensions/></trkpt><trkpt lat="59.11404702812433" lon="30.49695529974997"><ele>60.70000076293945</ele><time>2026-08-20T06:03:15.000Z</time><extensions/></trkpt><trkpt lat="59.11406848579645" lon="30.497317565605044"><ele>60.70000076293945</ele><time>2026-08-20T06:03:34.000Z</time><extensions/></trkpt><trkpt lat="59.11407083272934" lon="30.497325947508216"><ele>60.70000076293945</ele><time>2026-08-20T06:03:36.000Z</time><extensions/></trkpt><trkpt lat="59.11411978304386" lon="30.497565418481827"><ele>60.70000076293945</ele><time>2026-08-20T06:03:56.000Z</time><extensions/></trkpt><trkpt lat="59.11412263289094" lon="30.49785149283707"><ele>60.70000076293945</ele><time>2026-08-20T06:04:14.000Z</time><extensions/></trkpt><trkpt lat="59.11411232315004" lon="30.497998679056764"><ele>60.70000076293945</ele><time>2026-08-20T06:04:32.000Z</time><extensions/></trkpt><trkpt lat="59.11411835812032" lon="30.49815592356026"><ele>60.220001220703125</ele><time>2026-08-20T06:04:49.000Z</time><extensions/></trkpt><trkpt lat="59.11419463343918" lon="30.49846077337861"><ele>60.220001220703125</ele><time>2026-08-20T06:05:10.000Z</time><extensions/></trkpt><trkpt lat="59.11419169977307" lon="30.49876813776791"><ele>60.220001220703125</ele><time>2026-08-20T06:05:26.000Z</time><extensions/></trkpt><trkpt lat="59.11417166702449" lon="30.499106431379914"><ele>60.220001220703125</ele><time>2026-08-20T06:05:46.000Z</time><extensions/></trkpt><trkpt lat="59.114168398082256" lon="30.499109784141183"><ele>59.7400016784668</ele><time>2026-08-20T06:06:15.000Z</time><extensions/></trkpt><trkpt lat="59.11417527124286" lon="30.499108275398612"><ele>59.7400016784668</ele><time>2026-08-20T06:06:42.000Z</time><extensions/></trkpt><trkpt lat="59.1141626983881" lon="30.499272644519806"><ele>59.7400016784668</ele><time>2026-08-20T06:06:58.000Z</time><extensions/></trkpt><trkpt lat="59.11416747607291" lon="30.499386470764875"><ele>60.220001220703125</ele><time>2026-08-20T06:07:17.000Z</time><extensions/></trkpt><trkpt lat="59.114170242100954" lon="30.499486047774553"><ele>60.220001220703125</ele><time>2026-08-20T06:07:25.000Z</time><extensions/></trkpt><trkpt lat="59.1141920350492" lon="30.499815959483385"><ele>59.7400016784668</ele><time>2026-08-20T06:07:41.000Z</time><extensions/></trkpt><trkpt lat="59.11422807723284" lon="30.500131538137794"><ele>59.7400016784668</ele><time>2026-08-20T06:08:00.000Z</time><extensions/></trkpt><trkpt lat="59.1142197791487" lon="30.500375367701054"><ele>59.7400016784668</ele><time>2026-08-20T06:08:19.000Z</time><extensions/></trkpt><trkpt lat="59.11424081772566" lon="30.500604026019573"><ele>59.7400016784668</ele><time>2026-08-20T06:08:37.000Z</time><extensions/></trkpt><trkpt lat="59.114229921251535" lon="30.500731598585844"><ele>59.7400016784668</ele><time>2026-08-20T06:08:57.000Z</time><extensions/></trkpt><trkpt lat="59.11422371864319" lon="30.50074995495379"><ele>59.7400016784668</ele><time>2026-08-20T06:09:16.000Z</time><extensions/></trkpt><trkpt lat="59.11420485936105" lon="30.500835282728076"><ele>59.7400016784668</ele><time>2026-08-20T06:09:34.000Z</time><extensions/></trkpt><trkpt lat="59.11418524570763" lon="30.50094642676413"><ele>59.2599983215332</ele><time>2026-08-20T06:10:02.000Z</time><extensions/></trkpt><trkpt lat="59.11427023820579" lon="30.501023875549436"><ele>59.2599983215332</ele><time>2026-08-20T06:10:21.000Z</time><extensions/></trkpt><trkpt lat="59.114230843260884" lon="30.501136193051934"><ele>59.2599983215332</ele><time>2026-08-20T06:10:38.000Z</time><extensions/></trkpt><trkpt lat="59.1141936276108" lon="30.50113753415644"><ele>59.2599983215332</ele><time>2026-08-20T06:11:02.000Z</time><extensions/></trkpt><trkpt lat="59.1141901910305" lon="30.501122446730733"><ele>58.779998779296875</ele><time>2026-08-20T06:11:27.000Z</time><extensions/></trkpt><trkpt lat="59.11417703144252" lon="30.50112286582589"><ele>59.2599983215332</ele><time>2026-08-20T06:11:59.000Z</time><extensions/></trkpt><trkpt lat="59.11409279331565" lon="30.501139629632235"><ele>59.2599983215332</ele><time>2026-08-20T06:12:49.000Z</time><extensions/></trkpt><trkpt lat="59.114048788324" lon="30.5011432338506"><ele>59.2599983215332</ele><time>2026-08-20T06:13:12.000Z</time><extensions/></trkpt><trkpt lat="59.11401115357876" lon="30.501078441739082"><ele>59.2599983215332</ele><time>2026-08-20T06:13:25.000Z</time><extensions/></trkpt><trkpt lat="59.11391727626324" lon="30.50110325217247"><ele>59.2599983215332</ele><time>2026-08-20T06:13:43.000Z</time><extensions/></trkpt><trkpt lat="59.11381619051099" lon="30.50113543868065"><ele>59.2599983215332</ele><time>2026-08-20T06:14:01.000Z</time><extensions/></trkpt><trkpt lat="59.11371912807226" lon="30.501217832788825"><ele>59.2599983215332</ele><time>2026-08-20T06:14:23.000Z</time><extensions/></trkpt><trkpt lat="59.113692473620176" lon="30.5012122169137"><ele>59.2599983215332</ele><time>2026-08-20T06:15:01.000Z</time><extensions/></trkpt><trkpt lat="59.11368174478412" lon="30.50122973509133"><ele>59.2599983215332</ele><time>2026-08-20T06:15:25.000Z</time><extensions/></trkpt><trkpt lat="59.11363975144923" lon="30.50123317167163"><ele>59.2599983215332</ele><time>2026-08-20T06:15:43.000Z</time><extensions/></trkpt><trkpt lat="59.113583425059915" lon="30.501270471140742"><ele>59.2599983215332</ele><time>2026-08-20T06:16:26.000Z</time><extensions/></trkpt><trkpt lat="59.11358518525958" lon="30.501219928264618"><ele>59.2599983215332</ele><time>2026-08-20T06:17:08.000Z</time><extensions/></trkpt><trkpt lat="59.11359557881951" lon="30.501184221357107"><ele>59.2599983215332</ele><time>2026-08-20T06:17:45.000Z</time><extensions/></trkpt><trkpt lat="59.1136013623327" lon="30.5011432338506"><ele>58.779998779296875</ele><time>2026-08-20T06:18:25.000Z</time><extensions/></trkpt><trkpt lat="59.113603541627526" lon="30.501120937988162"><ele>58.779998779296875</ele><time>2026-08-20T06:18:59.000Z</time><extensions/></trkpt><trkpt lat="59.11359624937177" lon="30.501124961301684"><ele>58.779998779296875</ele><time>2026-08-20T06:19:32.000Z</time><extensions/></trkpt><trkpt lat="59.11360404454172" lon="30.501131750643253"><ele>59.2599983215332</ele><time>2026-08-20T06:19:54.000Z</time><extensions/></trkpt><trkpt lat="59.11361443810165" lon="30.50091566517949"><ele>59.2599983215332</ele><time>2026-08-20T06:20:23.000Z</time><extensions/></trkpt><trkpt lat="59.11360915750265" lon="30.500724725425243"><ele>59.2599983215332</ele><time>2026-08-20T06:20:42.000Z</time><extensions/></trkpt><trkpt lat="59.113600021228194" lon="30.5004523973912"><ele>59.2599983215332</ele><time>2026-08-20T06:21:02.000Z</time><extensions/></trkpt><trkpt lat="59.113582922145724" lon="30.5002124235034"><ele>59.2599983215332</ele><time>2026-08-20T06:21:22.000Z</time><extensions/></trkpt><trkpt lat="59.11357454024255" lon="30.500035816803575"><ele>59.2599983215332</ele><time>2026-08-20T06:21:44.000Z</time><extensions/></trkpt><trkpt lat="59.1135461255908" lon="30.49974337220192"><ele>59.2599983215332</ele><time>2026-08-20T06:22:08.000Z</time><extensions/></trkpt><trkpt lat="59.11351318471134" lon="30.49962409771979"><ele>58.779998779296875</ele><time>2026-08-20T06:22:26.000Z</time><extensions/></trkpt><trkpt lat="59.1135186329484" lon="30.4995371773839"><ele>58.779998779296875</ele><time>2026-08-20T06:22:55.000Z</time><extensions/></trkpt><trkpt lat="59.11349365487695" lon="30.49923475831747"><ele>58.779998779296875</ele><time>2026-08-20T06:23:18.000Z</time><extensions/></trkpt><trkpt lat="59.11346792243421" lon="30.499003333970904"><ele>58.779998779296875</ele><time>2026-08-20T06:23:39.000Z</time><extensions/></trkpt><trkpt lat="59.11341176368296" lon="30.4987945407629"><ele>58.779998779296875</ele><time>2026-08-20T06:23:59.000Z</time><extensions/></trkpt><trkpt lat="59.1133822593838" lon="30.49853545613587"><ele>58.779998779296875</ele><time>2026-08-20T06:24:23.000Z</time><extensions/></trkpt><trkpt lat="59.11336314864457" lon="30.498356418684125"><ele>58.779998779296875</ele><time>2026-08-20T06:24:43.000Z</time><extensions/></trkpt><trkpt lat="59.11336532793939" lon="30.498239658772945"><ele>58.779998779296875</ele><time>2026-08-20T06:25:04.000Z</time><extensions/></trkpt><trkpt lat="59.11338477395475" lon="30.498043354600668"><ele>59.2599983215332</ele><time>2026-08-20T06:25:28.000Z</time><extensions/></trkpt><trkpt lat="59.113466162234545" lon="30.497982166707516"><ele>59.2599983215332</ele><time>2026-08-20T06:25:47.000Z</time><extensions/></trkpt><trkpt lat="59.11350362934172" lon="30.49774437211454"><ele>59.7400016784668</ele><time>2026-08-20T06:26:12.000Z</time><extensions/></trkpt><trkpt lat="59.1135220695287" lon="30.49767262302339"><ele>59.7400016784668</ele><time>2026-08-20T06:26:33.000Z</time><extensions/></trkpt><trkpt lat="59.11352014169097" lon="30.49766968935728"><ele>59.7400016784668</ele><time>2026-08-20T06:27:03.000Z</time><extensions/></trkpt><trkpt lat="59.113520476967096" lon="30.49766482785344"><ele>58.779998779296875</ele><time>2026-08-20T06:27:31.000Z</time><extensions/></trkpt><trkpt lat="59.113512095063925" lon="30.49758268520236"><ele>59.2599983215332</ele><time>2026-08-20T06:27:56.000Z</time><extensions/></trkpt><trkpt lat="59.113515950739384" lon="30.497326031327248"><ele>59.7400016784668</ele><time>2026-08-20T06:28:18.000Z</time><extensions/></trkpt><trkpt lat="59.113511089235544" lon="30.49723969772458"><ele>59.7400016784668</ele><time>2026-08-20T06:28:37.000Z</time><extensions/></trkpt><trkpt lat="59.11351217888296" lon="30.497137270867825"><ele>58.779998779296875</ele><time>2026-08-20T06:29:01.000Z</time><extensions/></trkpt><trkpt lat="59.113518968224525" lon="30.497122183442116"><ele>58.779998779296875</ele><time>2026-08-20T06:29:21.000Z</time><extensions/></trkpt><trkpt lat="59.113493068143725" lon="30.497117657214403"><ele>59.2599983215332</ele><time>2026-08-20T06:29:53.000Z</time><extensions/></trkpt><trkpt lat="59.11347999237478" lon="30.496980864554644"><ele>59.2599983215332</ele><time>2026-08-20T06:30:19.000Z</time><extensions/></trkpt><trkpt lat="59.113476974889636" lon="30.496837366372347"><ele>59.7400016784668</ele><time>2026-08-20T06:30:38.000Z</time><extensions/></trkpt><trkpt lat="59.11345727741718" lon="30.496653551235795"><ele>59.7400016784668</ele><time>2026-08-20T06:31:02.000Z</time><extensions/></trkpt><trkpt lat="59.11340824328363" lon="30.496504437178373"><ele>59.7400016784668</ele><time>2026-08-20T06:31:26.000Z</time><extensions/></trkpt><trkpt lat="59.11336775869131" lon="30.496282735839486"><ele>59.7400016784668</ele><time>2026-08-20T06:31:51.000Z</time><extensions/></trkpt><trkpt lat="59.11334973759949" lon="30.496062291786075"><ele>59.7400016784668</ele><time>2026-08-20T06:32:14.000Z</time><extensions/></trkpt><trkpt lat="59.11327748559415" lon="30.49590529873967"><ele>59.7400016784668</ele><time>2026-08-20T06:32:34.000Z</time><extensions/></trkpt><trkpt lat="59.1132699418813" lon="30.49564043059945"><ele>59.7400016784668</ele><time>2026-08-20T06:32:55.000Z</time><extensions/></trkpt><trkpt lat="59.113292656838894" lon="30.495460890233517"><ele>59.7400016784668</ele><time>2026-08-20T06:33:18.000Z</time><extensions/></trkpt><trkpt lat="59.11330045200884" lon="30.495347566902637"><ele>59.7400016784668</ele><time>2026-08-20T06:33:41.000Z</time><extensions/></trkpt><trkpt lat="59.11327539011836" lon="30.49514103680849"><ele>59.7400016784668</ele><time>2026-08-20T06:34:01.000Z</time><extensions/></trkpt><trkpt lat="59.11323825828731" lon="30.495004579424858"><ele>59.7400016784668</ele><time>2026-08-20T06:34:22.000Z</time><extensions/></trkpt><trkpt lat="59.11319433711469" lon="30.49473149701953"><ele>59.2599983215332</ele><time>2026-08-20T06:34:48.000Z</time><extensions/></trkpt><trkpt lat="59.11323473788798" lon="30.494658490642905"><ele>59.2599983215332</ele><time>2026-08-20T06:35:08.000Z</time><extensions/></trkpt><trkpt lat="59.11329885944724" lon="30.49474708735943"><ele>59.7400016784668</ele><time>2026-08-20T06:35:30.000Z</time><extensions/></trkpt><trkpt lat="59.11342039704323" lon="30.494709284976125"><ele>59.7400016784668</ele><time>2026-08-20T06:35:51.000Z</time><extensions/></trkpt><trkpt lat="59.113476471975446" lon="30.494682798162103"><ele>59.2599983215332</ele><time>2026-08-20T06:36:14.000Z</time><extensions/></trkpt><trkpt lat="59.113508742302656" lon="30.49456436187029"><ele>59.2599983215332</ele><time>2026-08-20T06:36:32.000Z</time><extensions/></trkpt><trkpt lat="59.113505221903324" lon="30.494466293603182"><ele>59.2599983215332</ele><time>2026-08-20T06:36:48.000Z</time><extensions/></trkpt><trkpt lat="59.11350614391267" lon="30.494346767663956"><ele>59.2599983215332</ele><time>2026-08-20T06:37:07.000Z</time><extensions/></trkpt><trkpt lat="59.11345534957945" lon="30.49430544488132"><ele>59.2599983215332</ele><time>2026-08-20T06:37:25.000Z</time><extensions/></trkpt><trkpt lat="59.1134010348469" lon="30.494166975840926"><ele>59.2599983215332</ele><time>2026-08-20T06:37:46.000Z</time><extensions/></trkpt><trkpt lat="59.113379241898656" lon="30.494033535942435"><ele>59.2599983215332</ele><time>2026-08-20T06:38:13.000Z</time><extensions/></trkpt><trkpt lat="59.113402124494314" lon="30.493911746889353"><ele>59.2599983215332</ele><time>2026-08-20T06:38:34.000Z</time><extensions/></trkpt><trkpt lat="59.1133994422853" lon="30.493748635053635"><ele>59.7400016784668</ele><time>2026-08-20T06:38:56.000Z</time><extensions/></trkpt><trkpt lat="59.11340153776109" lon="30.493639335036278"><ele>59.7400016784668</ele><time>2026-08-20T06:39:14.000Z</time><extensions/></trkpt><trkpt lat="59.11339843645692" lon="30.493502290919423"><ele>59.7400016784668</ele><time>2026-08-20T06:39:35.000Z</time><extensions/></trkpt><trkpt lat="59.113372368738055" lon="30.49333104863763"><ele>59.7400016784668</ele><time>2026-08-20T06:39:55.000Z</time><extensions/></trkpt><trkpt lat="59.11334336735308" lon="30.493260053917766"><ele>59.7400016784668</ele><time>2026-08-20T06:40:15.000Z</time><extensions/></trkpt><trkpt lat="59.11333163268864" lon="30.49324664287269"><ele>59.7400016784668</ele><time>2026-08-20T06:40:36.000Z</time><extensions/></trkpt><trkpt lat="59.11331193521619" lon="30.493162740021944"><ele>60.220001220703125</ele><time>2026-08-20T06:41:04.000Z</time><extensions/></trkpt><trkpt lat="59.11338091827929" lon="30.492943888530135"><ele>60.220001220703125</ele><time>2026-08-20T06:41:32.000Z</time><extensions/></trkpt><trkpt lat="59.11334462463856" lon="30.49283718690276"><ele>60.220001220703125</ele><time>2026-08-20T06:41:50.000Z</time><extensions/></trkpt><trkpt lat="59.113342026248574" lon="30.492732245475054"><ele>60.220001220703125</ele><time>2026-08-20T06:42:09.000Z</time><extensions/></trkpt><trkpt lat="59.11336348392069" lon="30.492600230500102"><ele>60.220001220703125</ele><time>2026-08-20T06:42:35.000Z</time><extensions/></trkpt><trkpt lat="59.11334956996143" lon="30.49242278560996"><ele>60.220001220703125</ele><time>2026-08-20T06:42:56.000Z</time><extensions/></trkpt><trkpt lat="59.113252675160766" lon="30.49237098544836"><ele>60.220001220703125</ele><time>2026-08-20T06:43:14.000Z</time><extensions/></trkpt><trkpt lat="59.11319115199149" lon="30.492355981841683"><ele>60.220001220703125</ele><time>2026-08-20T06:43:37.000Z</time><extensions/></trkpt><trkpt lat="59.113113367930055" lon="30.492340391501784"><ele>60.220001220703125</ele><time>2026-08-20T06:43:58.000Z</time><extensions/></trkpt><trkpt lat="59.11298755556345" lon="30.492319269105792"><ele>60.220001220703125</ele><time>2026-08-20T06:44:19.000Z</time><extensions/></trkpt><trkpt lat="59.11289409734309" lon="30.49231817945838"><ele>60.220001220703125</ele><time>2026-08-20T06:44:39.000Z</time><extensions/></trkpt><trkpt lat="59.1128399502486" lon="30.49232454970479"><ele>60.220001220703125</ele><time>2026-08-20T06:44:58.000Z</time><extensions/></trkpt><trkpt lat="59.11283232271671" lon="30.492310132831335"><ele>60.220001220703125</ele><time>2026-08-20T06:45:20.000Z</time><extensions/></trkpt><trkpt lat="59.11281346343458" lon="30.492287166416645"><ele>60.70000076293945</ele><time>2026-08-20T06:45:56.000Z</time><extensions/></trkpt><trkpt lat="59.11277993582189" lon="30.492319017648697"><ele>60.70000076293945</ele><time>2026-08-20T06:46:34.000Z</time><extensions/></trkpt><trkpt lat="59.11270089447498" lon="30.49232555553317"><ele>60.220001220703125</ele><time>2026-08-20T06:46:51.000Z</time><extensions/></trkpt><trkpt lat="59.11267432384193" lon="30.49235623329878"><ele>60.70000076293945</ele><time>2026-08-20T06:47:14.000Z</time><extensions/></trkpt><trkpt lat="59.1125946957618" lon="30.49236746504903"><ele>60.70000076293945</ele><time>2026-08-20T06:47:32.000Z</time><extensions/></trkpt><trkpt lat="59.112571561709046" lon="30.492385234683752"><ele>60.70000076293945</ele><time>2026-08-20T06:47:50.000Z</time><extensions/></trkpt><trkpt lat="59.11256938241422" lon="30.49238909035921"><ele>60.220001220703125</ele><time>2026-08-20T06:48:16.000Z</time><extensions/></trkpt><trkpt lat="59.11257114261389" lon="30.49239738844335"><ele>60.70000076293945</ele><time>2026-08-20T06:48:36.000Z</time><extensions/></trkpt><trkpt lat="59.11256259307265" lon="30.49240426160395"><ele>60.70000076293945</ele><time>2026-08-20T06:49:27.000Z</time><extensions/></trkpt><trkpt lat="59.11259955726564" lon="30.492538372054696"><ele>60.70000076293945</ele><time>2026-08-20T06:50:01.000Z</time><extensions/></trkpt><trkpt lat="59.112644819542766" lon="30.492719085887074"><ele>61.18000030517578</ele><time>2026-08-20T06:50:22.000Z</time><extensions/></trkpt><trkpt lat="59.11266954615712" lon="30.492948247119784"><ele>60.70000076293945</ele><time>2026-08-20T06:50:40.000Z</time><extensions/></trkpt><trkpt lat="59.11263668909669" lon="30.493179420009255"><ele>60.70000076293945</ele><time>2026-08-20T06:51:01.000Z</time><extensions/></trkpt><trkpt lat="59.11262889392674" lon="30.4933999478817"><ele>60.70000076293945</ele><time>2026-08-20T06:51:25.000Z</time><extensions/></trkpt><trkpt lat="59.112642891705036" lon="30.493590468540788"><ele>60.70000076293945</ele><time>2026-08-20T06:51:44.000Z</time><extensions/></trkpt><trkpt lat="59.112647753208876" lon="30.493757855147123"><ele>60.70000076293945</ele><time>2026-08-20T06:52:03.000Z</time><extensions/></trkpt><trkpt lat="59.112668791785836" lon="30.493933875113726"><ele>61.18000030517578</ele><time>2026-08-20T06:52:25.000Z</time><extensions/></trkpt><trkpt lat="59.11270122975111" lon="30.494143841788173"><ele>61.18000030517578</ele><time>2026-08-20T06:52:45.000Z</time><extensions/></trkpt><trkpt lat="59.11273199133575" lon="30.494276443496346"><ele>61.18000030517578</ele><time>2026-08-20T06:53:06.000Z</time><extensions/></trkpt><trkpt lat="59.11274733021855" lon="30.494547933340073"><ele>61.18000030517578</ele><time>2026-08-20T06:53:30.000Z</time><extensions/></trkpt><trkpt lat="59.11274992860854" lon="30.494685983285308"><ele>61.18000030517578</ele><time>2026-08-20T06:53:51.000Z</time><extensions/></trkpt><trkpt lat="59.11276979371905" lon="30.494850855320692"><ele>61.65999984741211</ele><time>2026-08-20T06:54:17.000Z</time><extensions/></trkpt><trkpt lat="59.11280399188399" lon="30.49517615698278"><ele>61.65999984741211</ele><time>2026-08-20T06:54:43.000Z</time><extensions/></trkpt><trkpt lat="59.11279099993408" lon="30.495351841673255"><ele>61.65999984741211</ele><time>2026-08-20T06:55:09.000Z</time><extensions/></trkpt><trkpt lat="59.112786557525396" lon="30.495466170832515"><ele>61.65999984741211</ele><time>2026-08-20T06:55:32.000Z</time><extensions/></trkpt><trkpt lat="59.11272218450904" lon="30.495590222999454"><ele>61.18000030517578</ele><time>2026-08-20T06:55:56.000Z</time><extensions/></trkpt><trkpt lat="59.11269385367632" lon="30.495718382298946"><ele>61.18000030517578</ele><time>2026-08-20T06:56:24.000Z</time><extensions/></trkpt><trkpt lat="59.11269519478083" lon="30.495994985103607"><ele>61.18000030517578</ele><time>2026-08-20T06:56:47.000Z</time><extensions/></trkpt><trkpt lat="59.11270315758884" lon="30.496101519092917"><ele>61.18000030517578</ele><time>2026-08-20T06:57:16.000Z</time><extensions/></trkpt><trkpt lat="59.11270307376981" lon="30.496111158281565"><ele>61.18000030517578</ele><time>2026-08-20T06:57:39.000Z</time><extensions/></trkpt><trkpt lat="59.11272562108934" lon="30.496198246255517"><ele>61.18000030517578</ele><time>2026-08-20T06:58:13.000Z</time><extensions/></trkpt><trkpt lat="59.11275973543525" lon="30.49648138694465"><ele>61.18000030517578</ele><time>2026-08-20T06:58:38.000Z</time><extensions/></trkpt><trkpt lat="59.11282243207097" lon="30.496663944795728"><ele>61.18000030517578</ele><time>2026-08-20T06:59:03.000Z</time><extensions/></trkpt><trkpt lat="59.112909184768796" lon="30.49684583209455"><ele>61.18000030517578</ele><time>2026-08-20T06:59:21.000Z</time><extensions/></trkpt><trkpt lat="59.11296266131103" lon="30.497087063267827"><ele>61.18000030517578</ele><time>2026-08-20T06:59:40.000Z</time><extensions/></trkpt><trkpt lat="59.112941874191165" lon="30.497252941131592"><ele>61.18000030517578</ele><time>2026-08-20T07:00:03.000Z</time><extensions/></trkpt><trkpt lat="59.11293617449701" lon="30.497351847589016"><ele>61.18000030517578</ele><time>2026-08-20T07:00:29.000Z</time><extensions/></trkpt><trkpt lat="59.11294153891504" lon="30.497470619156957"><ele>60.70000076293945</ele><time>2026-08-20T07:00:56.000Z</time><extensions/></trkpt><trkpt lat="59.1129329893738" lon="30.497479252517223"><ele>60.70000076293945</ele><time>2026-08-20T07:01:20.000Z</time><extensions/></trkpt><trkpt lat="59.1129295527935" lon="30.497483862563968"><ele>60.70000076293945</ele><time>2026-08-20T07:01:45.000Z</time><extensions/></trkpt><trkpt lat="59.11292888224125" lon="30.497481683269143"><ele>61.18000030517578</ele><time>2026-08-20T07:02:10.000Z</time><extensions/></trkpt><trkpt lat="59.11292544566095" lon="30.497480174526572"><ele>60.70000076293945</ele><time>2026-08-20T07:02:28.000Z</time><extensions/></trkpt><trkpt lat="59.1129261162132" lon="30.4974717926234"><ele>60.70000076293945</ele><time>2026-08-20T07:02:48.000Z</time><extensions/></trkpt><trkpt lat="59.112923266366124" lon="30.497548151761293"><ele>61.18000030517578</ele><time>2026-08-20T07:03:08.000Z</time><extensions/></trkpt><trkpt lat="59.112928630784154" lon="30.49764571711421"><ele>60.70000076293945</ele><time>2026-08-20T07:03:33.000Z</time><extensions/></trkpt><trkpt lat="59.112931648269296" lon="30.497634653002024"><ele>60.70000076293945</ele><time>2026-08-20T07:04:02.000Z</time><extensions/></trkpt><trkpt lat="59.11293231882155" lon="30.49763984978199"><ele>60.70000076293945</ele><time>2026-08-20T07:04:33.000Z</time><extensions/></trkpt><trkpt lat="59.112939946353436" lon="30.497647477313876"><ele>60.70000076293945</ele><time>2026-08-20T07:04:58.000Z</time><extensions/></trkpt><trkpt lat="59.11294254474342" lon="30.49764906987548"><ele>60.70000076293945</ele><time>2026-08-20T07:05:21.000Z</time><extensions/></trkpt><trkpt lat="59.1129435505718" lon="30.497638592496514"><ele>60.70000076293945</ele><time>2026-08-20T07:05:44.000Z</time><extensions/></trkpt><trkpt lat="59.11294749006629" lon="30.49765158444643"><ele>60.70000076293945</ele><time>2026-08-20T07:06:06.000Z</time><extensions/></trkpt><trkpt lat="59.112946735695004" lon="30.49764563329518"><ele>60.70000076293945</ele><time>2026-08-20T07:06:28.000Z</time><extensions/></trkpt><trkpt lat="59.11294505931437" lon="30.497649488970637"><ele>60.70000076293945</ele><time>2026-08-20T07:06:50.000Z</time><extensions/></trkpt><trkpt lat="59.112967858091" lon="30.49770388752222"><ele>61.18000030517578</ele><time>2026-08-20T07:07:08.000Z</time><extensions/></trkpt><trkpt lat="59.11294505931437" lon="30.497954254969954"><ele>61.18000030517578</ele><time>2026-08-20T07:07:27.000Z</time><extensions/></trkpt><trkpt lat="59.11291019059718" lon="30.498071936890483"><ele>60.70000076293945</ele><time>2026-08-20T07:07:49.000Z</time><extensions/></trkpt><trkpt lat="59.112908095121384" lon="30.498082833364606"><ele>61.18000030517578</ele><time>2026-08-20T07:08:24.000Z</time><extensions/></trkpt><trkpt lat="59.11292745731771" lon="30.498244939371943"><ele>60.70000076293945</ele><time>2026-08-20T07:08:45.000Z</time><extensions/></trkpt><trkpt lat="59.11290097050369" lon="30.498514249920845"><ele>60.70000076293945</ele><time>2026-08-20T07:09:10.000Z</time><extensions/></trkpt><trkpt lat="59.11291136406362" lon="30.498785488307476"><ele>60.70000076293945</ele><time>2026-08-20T07:09:32.000Z</time><extensions/></trkpt><trkpt lat="59.1129366774112" lon="30.499024037271738"><ele>60.70000076293945</ele><time>2026-08-20T07:09:52.000Z</time><extensions/></trkpt><trkpt lat="59.11291463300586" lon="30.499265352264047"><ele>60.70000076293945</ele><time>2026-08-20T07:10:18.000Z</time><extensions/></trkpt><trkpt lat="59.11291345953941" lon="30.499538434669375"><ele>60.220001220703125</ele><time>2026-08-20T07:10:42.000Z</time><extensions/></trkpt><trkpt lat="59.11291178315878" lon="30.499542457982898"><ele>60.220001220703125</ele><time>2026-08-20T07:11:09.000Z</time><extensions/></trkpt><trkpt lat="59.11291086114943" lon="30.49954111687839"><ele>60.220001220703125</ele><time>2026-08-20T07:11:33.000Z</time><extensions/></trkpt><trkpt lat="59.112947741523385" lon="30.499774971976876"><ele>60.220001220703125</ele><time>2026-08-20T07:11:55.000Z</time><extensions/></trkpt><trkpt lat="59.11296475678682" lon="30.499995248392224"><ele>60.220001220703125</ele><time>2026-08-20T07:12:16.000Z</time><extensions/></trkpt><trkpt lat="59.1129937581718" lon="30.500187696889043"><ele>60.220001220703125</ele><time>2026-08-20T07:12:36.000Z</time><extensions/></trkpt><trkpt lat="59.11299048922956" lon="30.50036304630339"><ele>60.220001220703125</ele><time>2026-08-20T07:12:56.000Z</time><extensions/></trkpt><trkpt lat="59.11296903155744" lon="30.500542921945453"><ele>60.220001220703125</ele><time>2026-08-20T07:13:19.000Z</time><extensions/></trkpt><trkpt lat="59.11297137849033" lon="30.50075096078217"><ele>60.220001220703125</ele><time>2026-08-20T07:13:45.000Z</time><extensions/></trkpt><trkpt lat="59.11298604682088" lon="30.500935278832912"><ele>60.220001220703125</ele><time>2026-08-20T07:14:18.000Z</time><extensions/></trkpt><trkpt lat="59.112983448430896" lon="30.501179862767458"><ele>60.220001220703125</ele><time>2026-08-20T07:14:38.000Z</time><extensions/></trkpt><trkpt lat="59.11297875456512" lon="30.50131782889366"><ele>60.220001220703125</ele><time>2026-08-20T07:14:58.000Z</time><extensions/></trkpt><trkpt lat="59.11289828829467" lon="30.501380944624543"><ele>60.220001220703125</ele><time>2026-08-20T07:15:20.000Z</time><extensions/></trkpt><trkpt lat="59.11279862746596" lon="30.501339873299003"><ele>60.220001220703125</ele><time>2026-08-20T07:15:37.000Z</time><extensions/></trkpt><trkpt lat="59.11270575597882" lon="30.501404833048582"><ele>59.7400016784668</ele><time>2026-08-20T07:15:56.000Z</time><extensions/></trkpt><trkpt lat="59.11256083287299" lon="30.501420758664608"><ele>59.7400016784668</ele><time>2026-08-20T07:16:19.000Z</time><extensions/></trkpt><trkpt lat="59.11241129972041" lon="30.50146736204624"><ele>59.7400016784668</ele><time>2026-08-20T07:16:42.000Z</time><extensions/></trkpt><trkpt lat="59.112383890897036" lon="30.501412376761436"><ele>59.7400016784668</ele><time>2026-08-20T07:17:09.000Z</time><extensions/></trkpt><trkpt lat="59.1123909316957" lon="30.50141204148531"><ele>59.2599983215332</ele><time>2026-08-20T07:17:38.000Z</time><extensions/></trkpt><trkpt lat="59.11239009350538" lon="30.501411287114024"><ele>59.2599983215332</ele><time>2026-08-20T07:17:57.000Z</time><extensions/></trkpt><trkpt lat="59.11236813291907" lon="30.501265274360776"><ele>59.7400016784668</ele><time>2026-08-20T07:18:19.000Z</time><extensions/></trkpt><trkpt lat="59.11235639825463" lon="30.50110819749534"><ele>59.7400016784668</ele><time>2026-08-20T07:18:37.000Z</time><extensions/></trkpt><trkpt lat="59.11232932470739" lon="30.50084324553609"><ele>59.7400016784668</ele><time>2026-08-20T07:18:56.000Z</time><extensions/></trkpt><trkpt lat="59.11232555285096" lon="30.50055155530572"><ele>59.7400016784668</ele><time>2026-08-20T07:19:19.000Z</time><extensions/></trkpt><trkpt lat="59.11233142018318" lon="30.50049154087901"><ele>59.2599983215332</ele><time>2026-08-20T07:19:42.000Z</time><extensions/></trkpt><trkpt lat="59.11233217455447" lon="30.500485757365823"><ele>59.2599983215332</ele><time>2026-08-20T07:20:12.000Z</time><extensions/></trkpt><trkpt lat="59.11233192309737" lon="30.500480560585856"><ele>59.7400016784668</ele><time>2026-08-20T07:20:39.000Z</time><extensions/></trkpt><trkpt lat="59.11233535967767" lon="30.500484751537442"><ele>59.2599983215332</ele><time>2026-08-20T07:21:04.000Z</time><extensions/></trkpt><trkpt lat="59.11234357394278" lon="30.500471089035273"><ele>59.2599983215332</ele><time>2026-08-20T07:21:27.000Z</time><extensions/></trkpt><trkpt lat="59.11234147846699" lon="30.50046019256115"><ele>59.7400016784668</ele><time>2026-08-20T07:21:57.000Z</time><extensions/></trkpt><trkpt lat="59.11234315484762" lon="30.50044946372509"><ele>59.7400016784668</ele><time>2026-08-20T07:22:14.000Z</time><extensions/></trkpt><trkpt lat="59.112355560064316" lon="30.50040897913277"><ele>59.7400016784668</ele><time>2026-08-20T07:22:34.000Z</time><extensions/></trkpt><trkpt lat="59.11235924810171" lon="30.500357933342457"><ele>60.220001220703125</ele><time>2026-08-20T07:22:58.000Z</time><extensions/></trkpt><trkpt lat="59.1123666241765" lon="30.50032482482493"><ele>60.220001220703125</ele><time>2026-08-20T07:23:16.000Z</time><extensions/></trkpt><trkpt lat="59.11236352287233" lon="30.500054927542806"><ele>60.220001220703125</ele><time>2026-08-20T07:23:34.000Z</time><extensions/></trkpt><trkpt lat="59.1123510338366" lon="30.49977463670075"><ele>60.220001220703125</ele><time>2026-08-20T07:23:56.000Z</time><extensions/></trkpt><trkpt lat="59.11236645653844" lon="30.499488981440663"><ele>60.220001220703125</ele><time>2026-08-20T07:24:15.000Z</time><extensions/></trkpt><trkpt lat="59.112344831228256" lon="30.499278428032994"><ele>60.220001220703125</ele><time>2026-08-20T07:24:33.000Z</time><extensions/></trkpt><trkpt lat="59.112354973331094" lon="30.499112466350198"><ele>60.220001220703125</ele><time>2026-08-20T07:24:51.000Z</time><extensions/></trkpt><trkpt lat="59.11236352287233" lon="30.498934853821993"><ele>60.220001220703125</ele><time>2026-08-20T07:25:14.000Z</time><extensions/></trkpt><trkpt lat="59.11231809295714" lon="30.498782889917493"><ele>60.220001220703125</ele><time>2026-08-20T07:25:34.000Z</time><extensions/></trkpt><trkpt lat="59.11230526864529" lon="30.49869228154421"><ele>60.220001220703125</ele><time>2026-08-20T07:25:54.000Z</time><extensions/></trkpt><trkpt lat="59.1122960485518" lon="30.498508298769593"><ele>60.220001220703125</ele><time>2026-08-20T07:26:10.000Z</time><extensions/></trkpt><trkpt lat="59.112282721325755" lon="30.498368488624692"><ele>60.220001220703125</ele><time>2026-08-20T07:26:34.000Z</time><extensions/></trkpt><trkpt lat="59.112250450998545" lon="30.49826924689114"><ele>60.220001220703125</ele><time>2026-08-20T07:26:53.000Z</time><extensions/></trkpt><trkpt lat="59.11223167553544" lon="30.498140417039394"><ele>60.220001220703125</ele><time>2026-08-20T07:27:10.000Z</time><extensions/></trkpt><trkpt lat="59.112214324995875" lon="30.497877225279808"><ele>59.7400016784668</ele><time>2026-08-20T07:27:37.000Z</time><extensions/></trkpt><trkpt lat="59.11221172660589" lon="30.497873537242413"><ele>59.7400016784668</ele><time>2026-08-20T07:28:01.000Z</time><extensions/></trkpt><trkpt lat="59.112214324995875" lon="30.49783774651587"><ele>60.220001220703125</ele><time>2026-08-20T07:28:29.000Z</time><extensions/></trkpt><trkpt lat="59.11220342852175" lon="30.49763699993491"><ele>60.220001220703125</ele><time>2026-08-20T07:28:47.000Z</time><extensions/></trkpt><trkpt lat="59.11218968220055" lon="30.497649991884828"><ele>60.220001220703125</ele><time>2026-08-20T07:29:25.000Z</time><extensions/></trkpt><trkpt lat="59.11220074631274" lon="30.49758654087782"><ele>60.220001220703125</ele><time>2026-08-20T07:29:52.000Z</time><extensions/></trkpt><trkpt lat="59.11218515597284" lon="30.497584948316216"><ele>60.220001220703125</ele><time>2026-08-20T07:30:22.000Z</time><extensions/></trkpt><trkpt lat="59.11218389868736" lon="30.497576231136918"><ele>60.220001220703125</ele><time>2026-08-20T07:30:54.000Z</time><extensions/></trkpt><trkpt lat="59.11218264140189" lon="30.4975719563663"><ele>60.220001220703125</ele><time>2026-08-20T07:31:20.000Z</time><extensions/></trkpt><trkpt lat="59.11218515597284" lon="30.497338688001037"><ele>60.220001220703125</ele><time>2026-08-20T07:31:42.000Z</time><extensions/></trkpt><trkpt lat="59.11218632943928" lon="30.497084632515907"><ele>60.220001220703125</ele><time>2026-08-20T07:32:03.000Z</time><extensions/></trkpt><trkpt lat="59.11216026172042" lon="30.497002825140953"><ele>60.220001220703125</ele><time>2026-08-20T07:32:23.000Z</time><extensions/></trkpt><trkpt lat="59.11215263418853" lon="30.49688497558236"><ele>60.220001220703125</ele><time>2026-08-20T07:32:57.000Z</time><extensions/></trkpt><trkpt lat="59.11212866194546" lon="30.496756732463837"><ele>60.220001220703125</ele><time>2026-08-20T07:33:16.000Z</time><extensions/></trkpt><trkpt lat="59.11210544407368" lon="30.496676433831453"><ele>60.220001220703125</ele><time>2026-08-20T07:33:34.000Z</time><extensions/></trkpt><trkpt lat="59.11203562282026" lon="30.49637619405985"><ele>60.220001220703125</ele><time>2026-08-20T07:33:54.000Z</time><extensions/></trkpt><trkpt lat="59.11204509437084" lon="30.49614803865552"><ele>60.220001220703125</ele><time>2026-08-20T07:34:11.000Z</time><extensions/></trkpt><trkpt lat="59.11205322481692" lon="30.49589985050261"><ele>60.70000076293945</ele><time>2026-08-20T07:34:30.000Z</time><extensions/></trkpt><trkpt lat="59.11205439828336" lon="30.49573908559978"><ele>60.220001220703125</ele><time>2026-08-20T07:34:55.000Z</time><extensions/></trkpt><trkpt lat="59.11202237941325" lon="30.495533058419824"><ele>60.70000076293945</ele><time>2026-08-20T07:35:19.000Z</time><extensions/></trkpt><trkpt lat="59.11201517097652" lon="30.495490059256554"><ele>60.70000076293945</ele><time>2026-08-20T07:35:45.000Z</time><extensions/></trkpt><trkpt lat="59.11200796253979" lon="30.495279924944043"><ele>60.220001220703125</ele><time>2026-08-20T07:36:07.000Z</time><extensions/></trkpt><trkpt lat="59.11200938746333" lon="30.495183197781444"><ele>60.70000076293945</ele><time>2026-08-20T07:36:23.000Z</time><extensions/></trkpt><trkpt lat="59.11196923814714" lon="30.494915144518018"><ele>60.70000076293945</ele><time>2026-08-20T07:36:46.000Z</time><extensions/></trkpt><trkpt lat="59.11194233223796" lon="30.4947364423424"><ele>60.220001220703125</ele><time>2026-08-20T07:37:06.000Z</time><extensions/></trkpt><trkpt lat="59.11196923814714" lon="30.494603756815195"><ele>60.220001220703125</ele><time>2026-08-20T07:37:26.000Z</time><extensions/></trkpt><trkpt lat="59.1119400691241" lon="30.494370739907026"><ele>60.220001220703125</ele><time>2026-08-20T07:37:51.000Z</time><extensions/></trkpt><trkpt lat="59.11188818514347" lon="30.494291866198182"><ele>60.220001220703125</ele><time>2026-08-20T07:38:11.000Z</time><extensions/></trkpt><trkpt lat="59.111874187365174" lon="30.49419932998717"><ele>59.7400016784668</ele><time>2026-08-20T07:38:31.000Z</time><extensions/></trkpt><trkpt lat="59.111881060525775" lon="30.494185583665967"><ele>59.2599983215332</ele><time>2026-08-20T07:39:02.000Z</time><extensions/></trkpt><trkpt lat="59.11187209188938" lon="30.49413336440921"><ele>59.7400016784668</ele><time>2026-08-20T07:39:30.000Z</time><extensions/></trkpt><trkpt lat="59.1118676494807" lon="30.494043175131083"><ele>60.220001220703125</ele><time>2026-08-20T07:39:47.000Z</time><extensions/></trkpt><trkpt lat="59.111866392195225" lon="30.493942676112056"><ele>59.7400016784668</ele><time>2026-08-20T07:40:03.000Z</time><extensions/></trkpt><trkpt lat="59.11189547739923" lon="30.493869753554463"><ele>59.7400016784668</ele><time>2026-08-20T07:40:22.000Z</time><extensions/></trkpt><trkpt lat="59.111887933686376" lon="30.493734972551465"><ele>59.7400016784668</ele><time>2026-08-20T07:40:41.000Z</time><extensions/></trkpt><trkpt lat="59.111878629773855" lon="30.493642687797546"><ele>59.7400016784668</ele><time>2026-08-20T07:40:59.000Z</time><extensions/></trkpt><trkpt lat="59.111871337518096" lon="30.493562892079353"><ele>60.220001220703125</ele><time>2026-08-20T07:41:16.000Z</time><extensions/></trkpt><trkpt lat="59.11187737248838" lon="30.493429452180862"><ele>59.7400016784668</ele><time>2026-08-20T07:41:38.000Z</time><extensions/></trkpt><trkpt lat="59.11187485791743" lon="30.493225185200572"><ele>59.7400016784668</ele><time>2026-08-20T07:42:05.000Z</time><extensions/></trkpt><trkpt lat="59.11191936582327" lon="30.493022091686726"><ele>59.7400016784668</ele><time>2026-08-20T07:42:30.000Z</time><extensions/></trkpt><trkpt lat="59.11192925646901" lon="30.492851687595248"><ele>59.7400016784668</ele><time>2026-08-20T07:42:54.000Z</time><extensions/></trkpt><trkpt lat="59.11190679296851" lon="30.492735849693418"><ele>59.7400016784668</ele><time>2026-08-20T07:43:14.000Z</time><extensions/></trkpt><trkpt lat="59.11189933307469" lon="30.492723444476724"><ele>59.7400016784668</ele><time>2026-08-20T07:43:44.000Z</time><extensions/></trkpt><trkpt lat="59.11188944242895" lon="30.492702573537827"><ele>59.7400016784668</ele><time>2026-08-20T07:44:14.000Z</time><extensions/></trkpt><trkpt lat="59.11189212463796" lon="30.492696790024638"><ele>59.7400016784668</ele><time>2026-08-20T07:44:37.000Z</time><extensions/></trkpt><trkpt lat="59.11188659258187" lon="30.492689330130816"><ele>59.7400016784668</ele><time>2026-08-20T07:45:05.000Z</time><extensions/></trkpt><trkpt lat="59.11188533529639" lon="30.49268513917923"><ele>59.7400016784668</ele><time>2026-08-20T07:45:32.000Z</time><extensions/></trkpt><trkpt lat="59.11188432946801" lon="30.49267239868641"><ele>59.7400016784668</ele><time>2026-08-20T07:45:53.000Z</time><extensions/></trkpt><trkpt lat="59.111889358609915" lon="30.492663346230984"><ele>59.7400016784668</ele><time>2026-08-20T07:46:21.000Z</time><extensions/></trkpt><trkpt lat="59.11187603138387" lon="30.49264943227172"><ele>59.7400016784668</ele><time>2026-08-20T07:46:53.000Z</time><extensions/></trkpt><trkpt lat="59.11187946796417" lon="30.492657143622637"><ele>59.7400016784668</ele><time>2026-08-20T07:47:19.000Z</time><extensions/></trkpt><trkpt lat="59.11187754012644" lon="30.492648594081402"><ele>59.7400016784668</ele><time>2026-08-20T07:47:43.000Z</time><extensions/></trkpt><trkpt lat="59.111831188201904" lon="30.492739537730813"><ele>59.7400016784668</ele><time>2026-08-20T07:48:10.000Z</time><extensions/></trkpt><trkpt lat="59.111737897619605" lon="30.49276879057288"><ele>59.7400016784668</ele><time>2026-08-20T07:48:30.000Z</time><extensions/></trkpt><trkpt lat="59.11170747131109" lon="30.492778262123466"><ele>59.2599983215332</ele><time>2026-08-20T07:48:50.000Z</time><extensions/></trkpt><trkpt lat="59.11169179715216" lon="30.492766443639994"><ele>59.7400016784668</ele><time>2026-08-20T07:49:19.000Z</time><extensions/></trkpt><trkpt lat="59.11162834614515" lon="30.49286643974483"><ele>59.7400016784668</ele><time>2026-08-20T07:49:43.000Z</time><extensions/></trkpt><trkpt lat="59.11151125095785" lon="30.492899464443326"><ele>59.7400016784668</ele><time>2026-08-20T07:50:05.000Z</time><extensions/></trkpt><trkpt lat="59.111437657848" lon="30.49284934066236"><ele>59.2599983215332</ele><time>2026-08-20T07:50:29.000Z</time><extensions/></trkpt><trkpt lat="59.111339673399925" lon="30.492829140275717"><ele>59.2599983215332</ele><time>2026-08-20T07:50:49.000Z</time><extensions/></trkpt><trkpt lat="59.1112772282213" lon="30.492805754765868"><ele>59.2599983215332</ele><time>2026-08-20T07:51:11.000Z</time><extensions/></trkpt><trkpt lat="59.111260045319796" lon="30.492992838844657"><ele>59.2599983215332</ele><time>2026-08-20T07:51:46.000Z</time><extensions/></trkpt><trkpt lat="59.11128032952547" lon="30.493183359503746"><ele>59.2599983215332</ele><time>2026-08-20T07:52:09.000Z</time><extensions/></trkpt><trkpt lat="59.11129013635218" lon="30.49334873445332"><ele>58.779998779296875</ele><time>2026-08-20T07:52:27.000Z</time><extensions/></trkpt><trkpt lat="59.11132483743131" lon="30.49363355152309"><ele>58.779998779296875</ele><time>2026-08-20T07:52:51.000Z</time><extensions/></trkpt><trkpt lat="59.1113221552223" lon="30.493816193193197"><ele>58.779998779296875</ele><time>2026-08-20T07:53:09.000Z</time><extensions/></trkpt><trkpt lat="59.11137546412647" lon="30.493965139612556"><ele>58.779998779296875</ele><time>2026-08-20T07:53:32.000Z</time><extensions/></trkpt><trkpt lat="59.11131779663265" lon="30.49402104690671"><ele>58.779998779296875</ele><time>2026-08-20T07:53:52.000Z</time><extensions/></trkpt><trkpt lat="59.11132517270744" lon="30.494274767115712"><ele>58.779998779296875</ele><time>2026-08-20T07:54:14.000Z</time><extensions/></trkpt><trkpt lat="59.11135358735919" lon="30.49443829804659"><ele>58.779998779296875</ele><time>2026-08-20T07:54:32.000Z</time><extensions/></trkpt><trkpt lat="59.111396335065365" lon="30.494610127061605"><ele>58.779998779296875</ele><time>2026-08-20T07:54:50.000Z</time><extensions/></trkpt><trkpt lat="59.11142332479358" lon="30.494805090129375"><ele>58.779998779296875</ele><time>2026-08-20T07:55:10.000Z</time><extensions/></trkpt><trkpt lat="59.11144142970443" lon="30.494976583868265"><ele>58.779998779296875</ele><time>2026-08-20T07:55:30.000Z</time><extensions/></trkpt><trkpt lat="59.11148115992546" lon="30.49512729048729"><ele>58.779998779296875</ele><time>2026-08-20T07:55:51.000Z</time><extensions/></trkpt><trkpt lat="59.111512089148164" lon="30.49528755247593"><ele>58.779998779296875</ele><time>2026-08-20T07:56:16.000Z</time><extensions/></trkpt><trkpt lat="59.11154553294182" lon="30.495477486401796"><ele>59.2599983215332</ele><time>2026-08-20T07:56:37.000Z</time><extensions/></trkpt><trkpt lat="59.11148216575384" lon="30.49578057602048"><ele>58.779998779296875</ele><time>2026-08-20T07:56:59.000Z</time><extensions/></trkpt><trkpt lat="59.11148174665868" lon="30.495895575731993"><ele>58.779998779296875</ele><time>2026-08-20T07:57:19.000Z</time><extensions/></trkpt><trkpt lat="59.11152717657387" lon="30.496023148298264"><ele>58.779998779296875</ele><time>2026-08-20T07:57:38.000Z</time><extensions/></trkpt><trkpt lat="59.11157755181193" lon="30.496184332296252"><ele>58.779998779296875</ele><time>2026-08-20T07:57:58.000Z</time><extensions/></trkpt><trkpt lat="59.11157973110676" lon="30.49617938697338"><ele>58.779998779296875</ele><time>2026-08-20T07:58:22.000Z</time><extensions/></trkpt><trkpt lat="59.111581491306424" lon="30.49618768505752"><ele>58.779998779296875</ele><time>2026-08-20T07:58:45.000Z</time><extensions/></trkpt><trkpt lat="59.11157604306936" lon="30.49622867256403"><ele>58.779998779296875</ele><time>2026-08-20T07:59:09.000Z</time><extensions/></trkpt><trkpt lat="59.111587945371866" lon="30.49631182104349"><ele>59.2599983215332</ele><time>2026-08-20T07:59:34.000Z</time><extensions/></trkpt><trkpt lat="59.111651396378875" lon="30.496433023363352"><ele>58.779998779296875</ele><time>2026-08-20T07:59:55.000Z</time><extensions/></trkpt><trkpt lat="59.1116776317358" lon="30.496498988941312"><ele>58.779998779296875</ele><time>2026-08-20T08:00:16.000Z</time><extensions/></trkpt><trkpt lat="59.11168936640024" lon="30.49655112437904"><ele>58.779998779296875</ele><time>2026-08-20T08:00:39.000Z</time><extensions/></trkpt><trkpt lat="59.11170789040625" lon="30.4967241268605"><ele>58.779998779296875</ele><time>2026-08-20T08:00:57.000Z</time><extensions/></trkpt><trkpt lat="59.11172063089907" lon="30.496773663908243"><ele>58.779998779296875</ele><time>2026-08-20T08:01:21.000Z</time><extensions/></trkpt><trkpt lat="59.11173035390675" lon="30.496791685000062"><ele>58.779998779296875</ele><time>2026-08-20T08:01:47.000Z</time><extensions/></trkpt><trkpt lat="59.11174334585667" lon="30.49688874743879"><ele>58.779998779296875</ele><time>2026-08-20T08:02:11.000Z</time><extensions/></trkpt><trkpt lat="59.111710991710424" lon="30.497051775455475"><ele>58.779998779296875</ele><time>2026-08-20T08:02:29.000Z</time><extensions/></trkpt><trkpt lat="59.111716439947486" lon="30.497218323871493"><ele>58.779998779296875</ele><time>2026-08-20T08:02:51.000Z</time><extensions/></trkpt><trkpt lat="59.111650474369526" lon="30.497403983026743"><ele>58.779998779296875</ele><time>2026-08-20T08:03:13.000Z</time><extensions/></trkpt><trkpt lat="59.11162734031677" lon="30.497402725741267"><ele>58.779998779296875</ele><time>2026-08-20T08:03:30.000Z</time><extensions/></trkpt><trkpt lat="59.11163463257253" lon="30.497488053515553"><ele>58.779998779296875</ele><time>2026-08-20T08:03:46.000Z</time><extensions/></trkpt><trkpt lat="59.111632788553834" lon="30.497643537819386"><ele>58.779998779296875</ele><time>2026-08-20T08:04:03.000Z</time><extensions/></trkpt><trkpt lat="59.1116501390934" lon="30.497794579714537"><ele>58.779998779296875</ele><time>2026-08-20T08:04:25.000Z</time><extensions/></trkpt><trkpt lat="59.11162516102195" lon="30.49776893109083"><ele>58.779998779296875</ele><time>2026-08-20T08:04:47.000Z</time><extensions/></trkpt><trkpt lat="59.111598590388894" lon="30.4977688472718"><ele>58.779998779296875</ele><time>2026-08-20T08:05:10.000Z</time><extensions/></trkpt><trkpt lat="59.11152742803097" lon="30.49774923361838"><ele>58.779998779296875</ele><time>2026-08-20T08:05:28.000Z</time><extensions/></trkpt><trkpt lat="59.11146054044366" lon="30.497792484238744"><ele>58.779998779296875</ele><time>2026-08-20T08:05:46.000Z</time><extensions/></trkpt><trkpt lat="59.11141846328974" lon="30.497885439544916"><ele>59.2599983215332</ele><time>2026-08-20T08:06:02.000Z</time><extensions/></trkpt><trkpt lat="59.11138292402029" lon="30.498018292710185"><ele>58.779998779296875</ele><time>2026-08-20T08:06:20.000Z</time><extensions/></trkpt><trkpt lat="59.11138342693448" lon="30.498260948807"><ele>58.779998779296875</ele><time>2026-08-20T08:06:40.000Z</time><extensions/></trkpt><trkpt lat="59.11138669587672" lon="30.498326746746898"><ele>58.779998779296875</ele><time>2026-08-20T08:06:44.000Z</time><extensions/></trkpt><trkpt lat="59.11142139695585" lon="30.4984113201499"><ele>58.779998779296875</ele><time>2026-08-20T08:06:59.000Z</time><extensions/></trkpt><trkpt lat="59.11148644052446" lon="30.498406291007996"><ele>58.779998779296875</ele><time>2026-08-20T08:07:17.000Z</time><extensions/></trkpt><trkpt lat="59.11152072250843" lon="30.498525565490127"><ele>58.779998779296875</ele><time>2026-08-20T08:07:32.000Z</time><extensions/></trkpt><trkpt lat="59.11155835725367" lon="30.49874324351549"><ele>58.779998779296875</ele><time>2026-08-20T08:07:53.000Z</time><extensions/></trkpt><trkpt lat="59.11162222735584" lon="30.498924795538187"><ele>58.779998779296875</ele><time>2026-08-20T08:08:10.000Z</time><extensions/></trkpt><trkpt lat="59.11166983656585" lon="30.499036945402622"><ele>58.779998779296875</ele><time>2026-08-20T08:08:28.000Z</time><extensions/></trkpt><trkpt lat="59.11171266809106" lon="30.4991589859128"><ele>58.779998779296875</ele><time>2026-08-20T08:08:52.000Z</time><extensions/></trkpt><trkpt lat="59.11171962507069" lon="30.49937155097723"><ele>58.779998779296875</ele><time>2026-08-20T08:09:10.000Z</time><extensions/></trkpt><trkpt lat="59.111689953133464" lon="30.49953759647906"><ele>58.779998779296875</ele><time>2026-08-20T08:09:28.000Z</time><extensions/></trkpt><trkpt lat="59.11166589707136" lon="30.49964714795351"><ele>58.779998779296875</ele><time>2026-08-20T08:09:43.000Z</time><extensions/></trkpt><trkpt lat="59.111647540703416" lon="30.49970724619925"><ele>58.29999923706055</ele><time>2026-08-20T08:10:10.000Z</time><extensions/></trkpt><trkpt lat="59.11164863035083" lon="30.499706659466028"><ele>58.779998779296875</ele><time>2026-08-20T08:10:30.000Z</time><extensions/></trkpt><trkpt lat="59.111666986718774" lon="30.499821742996573"><ele>58.779998779296875</ele><time>2026-08-20T08:10:48.000Z</time><extensions/></trkpt><trkpt lat="59.111682660877705" lon="30.50009625032544"><ele>58.779998779296875</ele><time>2026-08-20T08:11:06.000Z</time><extensions/></trkpt><trkpt lat="59.111658772453666" lon="30.50035801716149"><ele>58.779998779296875</ele><time>2026-08-20T08:11:27.000Z</time><extensions/></trkpt><trkpt lat="59.11168986931443" lon="30.50052766688168"><ele>59.2599983215332</ele><time>2026-08-20T08:11:45.000Z</time><extensions/></trkpt><trkpt lat="59.11168651655316" lon="30.500765964388847"><ele>59.2599983215332</ele><time>2026-08-20T08:12:05.000Z</time><extensions/></trkpt><trkpt lat="59.11168048158288" lon="30.501056984066963"><ele>59.2599983215332</ele><time>2026-08-20T08:12:26.000Z</time><extensions/></trkpt><trkpt lat="59.111701268702745" lon="30.501274997368455"><ele>59.2599983215332</ele><time>2026-08-20T08:12:39.000Z</time><extensions/></trkpt><trkpt lat="59.11175248213112" lon="30.50156836397946"><ele>59.2599983215332</ele><time>2026-08-20T08:13:00.000Z</time><extensions/></trkpt><trkpt lat="59.1117259953171" lon="30.501665845513344"><ele>59.2599983215332</ele><time>2026-08-20T08:13:18.000Z</time><extensions/></trkpt><trkpt lat="59.11166539415717" lon="30.501711862161756"><ele>59.2599983215332</ele><time>2026-08-20T08:13:34.000Z</time><extensions/></trkpt><trkpt lat="59.111555088311434" lon="30.50166903063655"><ele>59.2599983215332</ele><time>2026-08-20T08:13:53.000Z</time><extensions/></trkpt><trkpt lat="59.111425671726465" lon="30.50166475586593"><ele>59.2599983215332</ele><time>2026-08-20T08:14:15.000Z</time><extensions/></trkpt><trkpt lat="59.11132366396487" lon="30.501672299578786"><ele>59.7400016784668</ele><time>2026-08-20T08:14:33.000Z</time><extensions/></trkpt><trkpt lat="59.11123297177255" lon="30.501685542985797"><ele>59.7400016784668</ele><time>2026-08-20T08:14:49.000Z</time><extensions/></trkpt><trkpt lat="59.111151583492756" lon="30.5016387719661"><ele>59.7400016784668</ele><time>2026-08-20T08:15:06.000Z</time><extensions/></trkpt><trkpt lat="59.11115384660661" lon="30.50162946805358"><ele>59.2599983215332</ele><time>2026-08-20T08:15:30.000Z</time><extensions/></trkpt><trkpt lat="59.11116197705269" lon="30.50162469036877"><ele>59.2599983215332</ele><time>2026-08-20T08:15:52.000Z</time><extensions/></trkpt><trkpt lat="59.111137418076396" lon="30.501565849408507"><ele>59.7400016784668</ele><time>2026-08-20T08:16:24.000Z</time><extensions/></trkpt><trkpt lat="59.11113666370511" lon="30.5013520270586"><ele>60.220001220703125</ele><time>2026-08-20T08:16:53.000Z</time><extensions/></trkpt><trkpt lat="59.11112945526838" lon="30.501128984615207"><ele>60.220001220703125</ele><time>2026-08-20T08:17:15.000Z</time><extensions/></trkpt><trkpt lat="59.11109517328441" lon="30.5008736718446"><ele>60.220001220703125</ele><time>2026-08-20T08:17:34.000Z</time><extensions/></trkpt><trkpt lat="59.111064076423645" lon="30.50068692304194"><ele>60.220001220703125</ele><time>2026-08-20T08:17:49.000Z</time><extensions/></trkpt><trkpt lat="59.11102266982198" lon="30.50047243013978"><ele>60.220001220703125</ele><time>2026-08-20T08:18:07.000Z</time><extensions/></trkpt><trkpt lat="59.110986879095435" lon="30.50024326890707"><ele>60.220001220703125</ele><time>2026-08-20T08:18:27.000Z</time><extensions/></trkpt><trkpt lat="59.110964834690094" lon="30.50011184066534"><ele>60.220001220703125</ele><time>2026-08-20T08:18:41.000Z</time><extensions/></trkpt><trkpt lat="59.11095209419727" lon="30.499865328893065"><ele>60.220001220703125</ele><time>2026-08-20T08:19:02.000Z</time><extensions/></trkpt><trkpt lat="59.110918482765555" lon="30.499593755230308"><ele>60.70000076293945</ele><time>2026-08-20T08:19:22.000Z</time><extensions/></trkpt><trkpt lat="59.110902389511466" lon="30.499350344762206"><ele>60.70000076293945</ele><time>2026-08-20T08:19:41.000Z</time><extensions/></trkpt><trkpt lat="59.11091571673751" lon="30.499054631218314"><ele>60.70000076293945</ele><time>2026-08-20T08:20:03.000Z</time><extensions/></trkpt><trkpt lat="59.11093826405704" lon="30.498807951807976"><ele>60.70000076293945</ele><time>2026-08-20T08:20:24.000Z</time><extensions/></trkpt><trkpt lat="59.11093147471547" lon="30.498644588515162"><ele>61.18000030517578</ele><time>2026-08-20T08:20:34.000Z</time><extensions/></trkpt><trkpt lat="59.11097631789744" lon="30.498458426445723"><ele>61.18000030517578</ele><time>2026-08-20T08:20:52.000Z</time><extensions/></trkpt><trkpt lat="59.110984448343515" lon="30.49829808063805"><ele>61.18000030517578</ele><time>2026-08-20T08:21:07.000Z</time><extensions/></trkpt><trkpt lat="59.11097916774452" lon="30.498116444796324"><ele>61.65999984741211</ele><time>2026-08-20T08:21:29.000Z</time><extensions/></trkpt><trkpt lat="59.11098084412515" lon="30.498043689876795"><ele>61.18000030517578</ele><time>2026-08-20T08:21:51.000Z</time><extensions/></trkpt><trkpt lat="59.11098612472415" lon="30.498017370700836"><ele>61.18000030517578</ele><time>2026-08-20T08:22:17.000Z</time><extensions/></trkpt><trkpt lat="59.11099542863667" lon="30.497963475063443"><ele>61.18000030517578</ele><time>2026-08-20T08:22:41.000Z</time><extensions/></trkpt><trkpt lat="59.1109957639128" lon="30.49788862466812"><ele>61.18000030517578</ele><time>2026-08-20T08:23:29.000Z</time><extensions/></trkpt><trkpt lat="59.11099978722632" lon="30.49785819835961"><ele>61.18000030517578</ele><time>2026-08-20T08:23:57.000Z</time><extensions/></trkpt><trkpt lat="59.110988387838006" lon="30.497827520594"><ele>61.18000030517578</ele><time>2026-08-20T08:24:22.000Z</time><extensions/></trkpt><trkpt lat="59.110988890752196" lon="30.497821820899844"><ele>61.18000030517578</ele><time>2026-08-20T08:24:54.000Z</time><extensions/></trkpt><trkpt lat="59.11099115386605" lon="30.497817043215036"><ele>61.18000030517578</ele><time>2026-08-20T08:25:18.000Z</time><extensions/></trkpt><trkpt lat="59.11099459044635" lon="30.4978206474334"><ele>61.18000030517578</ele><time>2026-08-20T08:25:43.000Z</time><extensions/></trkpt><trkpt lat="59.11099257878959" lon="30.497826682403684"><ele>61.18000030517578</ele><time>2026-08-20T08:26:08.000Z</time><extensions/></trkpt><trkpt lat="59.11099559627473" lon="30.49782458692789"><ele>61.18000030517578</ele><time>2026-08-20T08:26:33.000Z</time><extensions/></trkpt><trkpt lat="59.11099869757891" lon="30.49783179536462"><ele>61.18000030517578</ele><time>2026-08-20T08:26:58.000Z</time><extensions/></trkpt><trkpt lat="59.11100179888308" lon="30.497831627726555"><ele>61.18000030517578</ele><time>2026-08-20T08:27:23.000Z</time><extensions/></trkpt><trkpt lat="59.110996183007956" lon="30.49782458692789"><ele>60.70000076293945</ele><time>2026-08-20T08:27:55.000Z</time><extensions/></trkpt><trkpt lat="59.11099283024669" lon="30.497826347127557"><ele>61.18000030517578</ele><time>2026-08-20T08:28:28.000Z</time><extensions/></trkpt><trkpt lat="59.11099777556956" lon="30.497764321044087"><ele>61.18000030517578</ele><time>2026-08-20T08:29:17.000Z</time><extensions/></trkpt><trkpt lat="59.111025435850024" lon="30.497685447335243"><ele>61.18000030517578</ele><time>2026-08-20T08:29:28.000Z</time><extensions/></trkpt><trkpt lat="59.11107212305069" lon="30.49752116203308"><ele>61.18000030517578</ele><time>2026-08-20T08:29:44.000Z</time><extensions/></trkpt><trkpt lat="59.11103758960962" lon="30.497359726577997"><ele>61.18000030517578</ele><time>2026-08-20T08:29:59.000Z</time><extensions/></trkpt><trkpt lat="59.11099542863667" lon="30.49720793031156"><ele>61.18000030517578</ele><time>2026-08-20T08:30:16.000Z</time><extensions/></trkpt><trkpt lat="59.11098847165704" lon="30.497098630294204"><ele>61.18000030517578</ele><time>2026-08-20T08:30:30.000Z</time><extensions/></trkpt><trkpt lat="59.11094983108342" lon="30.49693375825882"><ele>61.18000030517578</ele><time>2026-08-20T08:30:53.000Z</time><extensions/></trkpt><trkpt lat="59.11092745140195" lon="30.496730161830783"><ele>61.18000030517578</ele><time>2026-08-20T08:31:18.000Z</time><extensions/></trkpt><trkpt lat="59.11090314388275" lon="30.496563278138638"><ele>61.18000030517578</ele><time>2026-08-20T08:31:36.000Z</time><extensions/></trkpt><trkpt lat="59.11091387271881" lon="30.49627804197371"><ele>61.18000030517578</ele><time>2026-08-20T08:31:57.000Z</time><extensions/></trkpt><trkpt lat="59.11089442670345" lon="30.49611476249993"><ele>61.18000030517578</ele><time>2026-08-20T08:32:13.000Z</time><extensions/></trkpt><trkpt lat="59.110857378691435" lon="30.495907478034496"><ele>61.18000030517578</ele><time>2026-08-20T08:32:30.000Z</time><extensions/></trkpt><trkpt lat="59.11079744808376" lon="30.49563749693334"><ele>61.18000030517578</ele><time>2026-08-20T08:32:51.000Z</time><extensions/></trkpt><trkpt lat="59.11080423742533" lon="30.495436834171414"><ele>61.65999984741211</ele><time>2026-08-20T08:33:13.000Z</time><extensions/></trkpt><trkpt lat="59.11083742976189" lon="30.49526073038578"><ele>61.65999984741211</ele><time>2026-08-20T08:33:31.000Z</time><extensions/></trkpt><trkpt lat="59.11078613251448" lon="30.495043387636542"><ele>61.65999984741211</ele><time>2026-08-20T08:33:48.000Z</time><extensions/></trkpt><trkpt lat="59.11076224409044" lon="30.494907684624195"><ele>61.65999984741211</ele><time>2026-08-20T08:34:09.000Z</time><extensions/></trkpt><trkpt lat="59.11078294739127" lon="30.494776675477624"><ele>61.65999984741211</ele><time>2026-08-20T08:34:32.000Z</time><extensions/></trkpt><trkpt lat="59.110781690105796" lon="30.494751781225204"><ele>61.65999984741211</ele><time>2026-08-20T08:34:58.000Z</time><extensions/></trkpt><trkpt lat="59.11078177392483" lon="30.494777597486973"><ele>61.18000030517578</ele><time>2026-08-20T08:35:26.000Z</time><extensions/></trkpt><trkpt lat="59.11077758297324" lon="30.494713140651584"><ele>61.65999984741211</ele><time>2026-08-20T08:35:55.000Z</time><extensions/></trkpt><trkpt lat="59.110750425606966" lon="30.494617922231555"><ele>61.65999984741211</ele><time>2026-08-20T08:36:14.000Z</time><extensions/></trkpt><trkpt lat="59.110733829438686" lon="30.494396472349763"><ele>61.65999984741211</ele><time>2026-08-20T08:36:32.000Z</time><extensions/></trkpt><trkpt lat="59.11072972230613" lon="30.49416613765061"><ele>61.65999984741211</ele><time>2026-08-20T08:36:50.000Z</time><extensions/></trkpt><trkpt lat="59.110717652365565" lon="30.493980227038264"><ele>61.65999984741211</ele><time>2026-08-20T08:37:07.000Z</time><extensions/></trkpt><trkpt lat="59.11073114722967" lon="30.49377185292542"><ele>61.18000030517578</ele><time>2026-08-20T08:37:27.000Z</time><extensions/></trkpt><trkpt lat="59.110727375373244" lon="30.49372055567801"><ele>61.18000030517578</ele><time>2026-08-20T08:37:47.000Z</time><extensions/></trkpt><trkpt lat="59.11069577559829" lon="30.49349424429238"><ele>61.18000030517578</ele><time>2026-08-20T08:38:07.000Z</time><extensions/></trkpt><trkpt lat="59.110675659030676" lon="30.49331596121192"><ele>61.18000030517578</ele><time>2026-08-20T08:38:23.000Z</time><extensions/></trkpt><trkpt lat="59.1106310673058" lon="30.493097864091396"><ele>61.18000030517578</ele><time>2026-08-20T08:38:41.000Z</time><extensions/></trkpt><trkpt lat="59.110499219968915" lon="30.49300717189908"><ele>61.18000030517578</ele><time>2026-08-20T08:39:01.000Z</time><extensions/></trkpt><trkpt lat="59.1103654447943" lon="30.49299795180559"><ele>61.18000030517578</ele><time>2026-08-20T08:39:19.000Z</time><extensions/></trkpt><trkpt lat="59.11022144369781" lon="30.4930423758924"><ele>61.18000030517578</ele><time>2026-08-20T08:39:39.000Z</time><extensions/></trkpt><trkpt lat="59.11009646952152" lon="30.492997281253338"><ele>61.18000030517578</ele><time>2026-08-20T08:39:56.000Z</time><extensions/></trkpt><trkpt lat="59.110075095668435" lon="30.493021169677377"><ele>61.18000030517578</ele><time>2026-08-20T08:40:19.000Z</time><extensions/></trkpt><trkpt lat="59.1100942902267" lon="30.493150921538472"><ele>61.18000030517578</ele><time>2026-08-20T08:41:01.000Z</time><extensions/></trkpt><trkpt lat="59.11010158248246" lon="30.49323432147503"><ele>61.18000030517578</ele><time>2026-08-20T08:41:19.000Z</time><extensions/></trkpt><trkpt lat="59.110087249428034" lon="30.493346136063337"><ele>60.70000076293945</ele><time>2026-08-20T08:41:41.000Z</time><extensions/></trkpt><trkpt lat="59.11010082811117" lon="30.49343414604664"><ele>61.18000030517578</ele><time>2026-08-20T08:42:09.000Z</time><extensions/></trkpt><trkpt lat="59.11010627634823" lon="30.493539590388536"><ele>61.18000030517578</ele><time>2026-08-20T08:42:29.000Z</time><extensions/></trkpt><trkpt lat="59.11011046729982" lon="30.493700774386525"><ele>61.18000030517578</ele><time>2026-08-20T08:42:47.000Z</time><extensions/></trkpt><trkpt lat="59.1100837290287" lon="30.493807140737772"><ele>61.18000030517578</ele><time>2026-08-20T08:43:06.000Z</time><extensions/></trkpt><trkpt lat="59.11005632020533" lon="30.49393949098885"><ele>61.18000030517578</ele><time>2026-08-20T08:43:26.000Z</time><extensions/></trkpt><trkpt lat="59.11005078814924" lon="30.494025740772486"><ele>61.18000030517578</ele><time>2026-08-20T08:43:44.000Z</time><extensions/></trkpt><trkpt lat="59.11006696522236" lon="30.494118193164468"><ele>61.18000030517578</ele><time>2026-08-20T08:43:58.000Z</time><extensions/></trkpt><trkpt lat="59.11005422472954" lon="30.494324220344424"><ele>61.18000030517578</ele><time>2026-08-20T08:44:20.000Z</time><extensions/></trkpt><trkpt lat="59.11003318615258" lon="30.49441742710769"><ele>61.18000030517578</ele><time>2026-08-20T08:44:49.000Z</time><extensions/></trkpt><trkpt lat="59.11003142595291" lon="30.494679361581802"><ele>61.18000030517578</ele><time>2026-08-20T08:45:08.000Z</time><extensions/></trkpt><trkpt lat="59.110043328255415" lon="30.494861165061593"><ele>61.18000030517578</ele><time>2026-08-20T08:45:25.000Z</time><extensions/></trkpt><trkpt lat="59.11010032519698" lon="30.495147239416838"><ele>61.18000030517578</ele><time>2026-08-20T08:45:47.000Z</time><extensions/></trkpt><trkpt lat="59.110122453421354" lon="30.49524748697877"><ele>61.18000030517578</ele><time>2026-08-20T08:46:07.000Z</time><extensions/></trkpt><trkpt lat="59.11012857221067" lon="30.49532912671566"><ele>61.18000030517578</ele><time>2026-08-20T08:46:24.000Z</time><extensions/></trkpt><trkpt lat="59.11013008095324" lon="30.495343962684274"><ele>61.18000030517578</ele><time>2026-08-20T08:46:49.000Z</time><extensions/></trkpt><trkpt lat="59.11012815311551" lon="30.4953892249614"><ele>61.18000030517578</ele><time>2026-08-20T08:47:15.000Z</time><extensions/></trkpt><trkpt lat="59.11015438847244" lon="30.49551579169929"><ele>61.18000030517578</ele><time>2026-08-20T08:47:37.000Z</time><extensions/></trkpt><trkpt lat="59.11017936654389" lon="30.495637748390436"><ele>61.18000030517578</ele><time>2026-08-20T08:47:49.000Z</time><extensions/></trkpt><trkpt lat="59.1102047637105" lon="30.495746042579412"><ele>61.18000030517578</ele><time>2026-08-20T08:48:10.000Z</time><extensions/></trkpt><trkpt lat="59.110222198069096" lon="30.495907897129655"><ele>61.18000030517578</ele><time>2026-08-20T08:48:26.000Z</time><extensions/></trkpt><trkpt lat="59.110252037644386" lon="30.496007557958364"><ele>61.18000030517578</ele><time>2026-08-20T08:48:52.000Z</time><extensions/></trkpt><trkpt lat="59.11024038679898" lon="30.49617988988757"><ele>61.18000030517578</ele><time>2026-08-20T08:49:07.000Z</time><extensions/></trkpt><trkpt lat="59.110233932733536" lon="30.496264044195414"><ele>61.18000030517578</ele><time>2026-08-20T08:49:28.000Z</time><extensions/></trkpt><trkpt lat="59.1102203540504" lon="30.496272845193744"><ele>61.65999984741211</ele><time>2026-08-20T08:49:47.000Z</time><extensions/></trkpt><trkpt lat="59.11017785780132" lon="30.496367644518614"><ele>61.18000030517578</ele><time>2026-08-20T08:50:06.000Z</time><extensions/></trkpt><trkpt lat="59.110157238319516" lon="30.49645397812128"><ele>61.18000030517578</ele><time>2026-08-20T08:50:26.000Z</time><extensions/></trkpt><trkpt lat="59.110165536403656" lon="30.49645054154098"><ele>61.18000030517578</ele><time>2026-08-20T08:50:48.000Z</time><extensions/></trkpt><trkpt lat="59.110134188085794" lon="30.496546095237136"><ele>61.18000030517578</ele><time>2026-08-20T08:51:09.000Z</time><extensions/></trkpt><trkpt lat="59.110144916921854" lon="30.496640224009752"><ele>61.18000030517578</ele><time>2026-08-20T08:51:31.000Z</time><extensions/></trkpt><trkpt lat="59.110176181420684" lon="30.49681406468153"><ele>61.18000030517578</ele><time>2026-08-20T08:52:01.000Z</time><extensions/></trkpt><trkpt lat="59.110154723748565" lon="30.49703937023878"><ele>61.18000030517578</ele><time>2026-08-20T08:52:19.000Z</time><extensions/></trkpt><trkpt lat="59.110208032652736" lon="30.497216479852796"><ele>61.18000030517578</ele><time>2026-08-20T08:52:41.000Z</time><extensions/></trkpt><trkpt lat="59.110228568315506" lon="30.497293174266815"><ele>61.18000030517578</ele><time>2026-08-20T08:53:00.000Z</time><extensions/></trkpt><trkpt lat="59.110291516408324" lon="30.497274482622743"><ele>61.18000030517578</ele><time>2026-08-20T08:53:23.000Z</time><extensions/></trkpt><trkpt lat="59.110362930223346" lon="30.497390320524573"><ele>61.18000030517578</ele><time>2026-08-20T08:53:42.000Z</time><extensions/></trkpt><trkpt lat="59.1104500181973" lon="30.49745067022741"><ele>61.18000030517578</ele><time>2026-08-20T08:54:00.000Z</time><extensions/></trkpt><trkpt lat="59.11053207702935" lon="30.49758117645979"><ele>61.18000030517578</ele><time>2026-08-20T08:54:19.000Z</time><extensions/></trkpt><trkpt lat="59.11050575785339" lon="30.497705982998013"><ele>61.18000030517578</ele><time>2026-08-20T08:54:36.000Z</time><extensions/></trkpt><trkpt lat="59.11046803928912" lon="30.497903376817703"><ele>61.18000030517578</ele><time>2026-08-20T08:54:53.000Z</time><extensions/></trkpt><trkpt lat="59.11041774787009" lon="30.498046036809683"><ele>61.18000030517578</ele><time>2026-08-20T08:55:11.000Z</time><extensions/></trkpt><trkpt lat="59.110370725393295" lon="30.49815039150417"><ele>60.70000076293945</ele><time>2026-08-20T08:55:33.000Z</time><extensions/></trkpt><trkpt lat="59.110354129225016" lon="30.49822188913822"><ele>60.70000076293945</ele><time>2026-08-20T08:55:58.000Z</time><extensions/></trkpt><trkpt lat="59.110356979072094" lon="30.498227756470442"><ele>60.220001220703125</ele><time>2026-08-20T08:56:24.000Z</time><extensions/></trkpt><trkpt lat="59.11035723052919" lon="30.498395143076777"><ele>60.220001220703125</ele><time>2026-08-20T08:56:44.000Z</time><extensions/></trkpt><trkpt lat="59.11034993827343" lon="30.49862204119563"><ele>60.220001220703125</ele><time>2026-08-20T08:57:02.000Z</time><extensions/></trkpt><trkpt lat="59.1103239543736" lon="30.498750871047378"><ele>60.220001220703125</ele><time>2026-08-20T08:57:16.000Z</time><extensions/></trkpt><trkpt lat="59.110317081213" lon="30.498812729492784"><ele>60.220001220703125</ele><time>2026-08-20T08:57:40.000Z</time><extensions/></trkpt><trkpt lat="59.11030978895724" lon="30.499039124697447"><ele>60.220001220703125</ele><time>2026-08-20T08:57:58.000Z</time><extensions/></trkpt><trkpt lat="59.11032412201166" lon="30.499216821044683"><ele>59.7400016784668</ele><time>2026-08-20T08:58:15.000Z</time><extensions/></trkpt><trkpt lat="59.11032588221133" lon="30.499366857111454"><ele>60.220001220703125</ele><time>2026-08-20T08:58:32.000Z</time><extensions/></trkpt><trkpt lat="59.11036083474755" lon="30.49938672222197"><ele>60.220001220703125</ele><time>2026-08-20T08:58:56.000Z</time><extensions/></trkpt><trkpt lat="59.110373575240374" lon="30.499576069414616"><ele>60.220001220703125</ele><time>2026-08-20T08:59:18.000Z</time><extensions/></trkpt><trkpt lat="59.11034742370248" lon="30.499711856245995"><ele>60.220001220703125</ele><time>2026-08-20T08:59:27.000Z</time><extensions/></trkpt><trkpt lat="59.110326217487454" lon="30.49979517236352"><ele>60.220001220703125</ele><time>2026-08-20T08:59:41.000Z</time><extensions/></trkpt><trkpt lat="59.11033594049513" lon="30.49981822259724"><ele>60.220001220703125</ele><time>2026-08-20T09:00:06.000Z</time><extensions/></trkpt><trkpt lat="59.11032345145941" lon="30.499901538714767"><ele>60.220001220703125</ele><time>2026-08-20T09:00:25.000Z</time><extensions/></trkpt><trkpt lat="59.11035446450114" lon="30.500074373558164"><ele>60.220001220703125</ele><time>2026-08-20T09:00:42.000Z</time><extensions/></trkpt><trkpt lat="59.110353626310825" lon="30.50023002550006"><ele>60.220001220703125</ele><time>2026-08-20T09:01:00.000Z</time><extensions/></trkpt><trkpt lat="59.110346166417" lon="30.500409230589867"><ele>60.220001220703125</ele><time>2026-08-20T09:01:20.000Z</time><extensions/></trkpt><trkpt lat="59.110345747321844" lon="30.500617269426584"><ele>60.220001220703125</ele><time>2026-08-20T09:01:39.000Z</time><extensions/></trkpt><trkpt lat="59.110334096476436" lon="30.500839976593852"><ele>60.220001220703125</ele><time>2026-08-20T09:01:57.000Z</time><extensions/></trkpt><trkpt lat="59.11033124662936" lon="30.501076765358448"><ele>60.220001220703125</ele><time>2026-08-20T09:02:17.000Z</time><extensions/></trkpt><trkpt lat="59.110381454229355" lon="30.501285642385483"><ele>60.220001220703125</ele><time>2026-08-20T09:02:42.000Z</time><extensions/></trkpt><trkpt lat="59.11044222302735" lon="30.501496698707342"><ele>60.220001220703125</ele><time>2026-08-20T09:03:04.000Z</time><extensions/></trkpt><trkpt lat="59.11046083085239" lon="30.50160113722086"><ele>60.220001220703125</ele><time>2026-08-20T09:03:19.000Z</time><extensions/></trkpt><trkpt lat="59.11049075424671" lon="30.50172527320683"><ele>60.220001220703125</ele><time>2026-08-20T09:03:38.000Z</time><extensions/></trkpt><trkpt lat="59.110494358465075" lon="30.501848235726357"><ele>60.220001220703125</ele><time>2026-08-20T09:03:56.000Z</time><extensions/></trkpt><trkpt lat="59.11050232127309" lon="30.50191478803754"><ele>60.220001220703125</ele><time>2026-08-20T09:04:17.000Z</time><extensions/></trkpt><trkpt lat="59.11049553193152" lon="30.501902466639876"><ele>60.220001220703125</ele><time>2026-08-20T09:04:46.000Z</time><extensions/></trkpt><trkpt lat="59.11049595102668" lon="30.50189148634672"><ele>60.220001220703125</ele><time>2026-08-20T09:05:14.000Z</time><extensions/></trkpt><trkpt lat="59.11050039343536" lon="30.50188209861517"><ele>60.220001220703125</ele><time>2026-08-20T09:05:37.000Z</time><extensions/></trkpt><trkpt lat="59.11050676368177" lon="30.50188503228128"><ele>60.220001220703125</ele><time>2026-08-20T09:05:59.000Z</time><extensions/></trkpt><trkpt lat="59.11050919443369" lon="30.501890061423182"><ele>60.220001220703125</ele><time>2026-08-20T09:06:24.000Z</time><extensions/></trkpt><trkpt lat="59.11051497794688" lon="30.501899952068925"><ele>59.7400016784668</ele><time>2026-08-20T09:06:52.000Z</time><extensions/></trkpt><trkpt lat="59.11051573231816" lon="30.501893246546388"><ele>59.7400016784668</ele><time>2026-08-20T09:07:16.000Z</time><extensions/></trkpt><trkpt lat="59.110482120886445" lon="30.501901796087623"><ele>60.70000076293945</ele><time>2026-08-20T09:08:07.000Z</time><extensions/></trkpt><trkpt lat="59.11048153415322" lon="30.501888133585453"><ele>60.70000076293945</ele><time>2026-08-20T09:08:48.000Z</time><extensions/></trkpt><trkpt lat="59.11049502901733" lon="30.5018821824342"><ele>60.70000076293945</ele><time>2026-08-20T09:09:17.000Z</time><extensions/></trkpt><trkpt lat="59.11050106398761" lon="30.501889139413834"><ele>60.70000076293945</ele><time>2026-08-20T09:09:44.000Z</time><extensions/></trkpt><trkpt lat="59.11050986498594" lon="30.501893246546388"><ele>60.70000076293945</ele><time>2026-08-20T09:10:09.000Z</time><extensions/></trkpt><trkpt lat="59.110512882471085" lon="30.501902299001813"><ele>60.70000076293945</ele><time>2026-08-20T09:10:28.000Z</time><extensions/></trkpt><trkpt lat="59.11051162518561" lon="30.501894168555737"><ele>60.70000076293945</ele><time>2026-08-20T09:10:50.000Z</time><extensions/></trkpt><trkpt lat="59.11054817028344" lon="30.50190707668662"><ele>61.18000030517578</ele><time>2026-08-20T09:11:18.000Z</time><extensions/></trkpt><trkpt lat="59.11058354191482" lon="30.50200522877276"><ele>61.18000030517578</ele><time>2026-08-20T09:11:35.000Z</time><extensions/></trkpt><trkpt lat="59.11068404093385" lon="30.502080833539367"><ele>61.18000030517578</ele><time>2026-08-20T09:11:56.000Z</time><extensions/></trkpt><trkpt lat="59.11073508672416" lon="30.50201788544655"><ele>61.18000030517578</ele><time>2026-08-20T09:12:09.000Z</time><extensions/></trkpt><trkpt lat="59.11079845391214" lon="30.501910848543048"><ele>61.18000030517578</ele><time>2026-08-20T09:12:31.000Z</time><extensions/></trkpt><trkpt lat="59.11090272478759" lon="30.501869525760412"><ele>61.18000030517578</ele><time>2026-08-20T09:12:46.000Z</time><extensions/></trkpt><trkpt lat="59.11102367565036" lon="30.50185527652502"><ele>61.18000030517578</ele><time>2026-08-20T09:13:01.000Z</time><extensions/></trkpt><trkpt lat="59.11114152520895" lon="30.501818228513002"><ele>61.18000030517578</ele><time>2026-08-20T09:13:16.000Z</time><extensions/></trkpt><trkpt lat="59.111201874911785" lon="30.50179325044155"><ele>61.18000030517578</ele><time>2026-08-20T09:13:34.000Z</time><extensions/></trkpt><trkpt lat="59.11132567562163" lon="30.501772798597813"><ele>61.18000030517578</ele><time>2026-08-20T09:13:51.000Z</time><extensions/></trkpt><trkpt lat="59.11149029619992" lon="30.50177078694105"><ele>61.18000030517578</ele><time>2026-08-20T09:14:11.000Z</time><extensions/></trkpt><trkpt lat="59.11159557290375" lon="30.50177992321551"><ele>61.18000030517578</ele><time>2026-08-20T09:14:28.000Z</time><extensions/></trkpt><trkpt lat="59.11165843717754" lon="30.501737846061587"><ele>61.18000030517578</ele><time>2026-08-20T09:14:35.000Z</time><extensions/></trkpt><trkpt lat="59.11175239831209" lon="30.501656960695982"><ele>61.18000030517578</ele><time>2026-08-20T09:14:51.000Z</time><extensions/></trkpt><trkpt lat="59.11188424564898" lon="30.501607842743397"><ele>61.18000030517578</ele><time>2026-08-20T09:15:08.000Z</time><extensions/></trkpt><trkpt lat="59.1120301745832" lon="30.501523772254586"><ele>61.18000030517578</ele><time>2026-08-20T09:15:27.000Z</time><extensions/></trkpt><trkpt lat="59.11214215680957" lon="30.50154003314674"><ele>61.18000030517578</ele><time>2026-08-20T09:15:43.000Z</time><extensions/></trkpt><trkpt lat="59.112212397158146" lon="30.501497955992818"><ele>61.18000030517578</ele><time>2026-08-20T09:16:00.000Z</time><extensions/></trkpt><trkpt lat="59.11224248819053" lon="30.501503152772784"><ele>61.18000030517578</ele><time>2026-08-20T09:16:17.000Z</time><extensions/></trkpt><trkpt lat="59.11225656978786" lon="30.501481778919697"><ele>61.65999984741211</ele><time>2026-08-20T09:16:39.000Z</time><extensions/></trkpt><trkpt lat="59.11226243712008" lon="30.50143592990935"><ele>61.18000030517578</ele><time>2026-08-20T09:16:58.000Z</time><extensions/></trkpt><trkpt lat="59.112461591139436" lon="30.501466942951083"><ele>61.65999984741211</ele><time>2026-08-20T09:17:18.000Z</time><extensions/></trkpt><trkpt lat="59.11257281899452" lon="30.501443222165108"><ele>61.65999984741211</ele><time>2026-08-20T09:17:35.000Z</time><extensions/></trkpt><trkpt lat="59.11273676902056" lon="30.501414723694324"><ele>61.65999984741211</ele><time>2026-08-20T09:18:07.000Z</time><extensions/></trkpt><trkpt lat="59.11295344121754" lon="30.501356637105346"><ele>62.619998931884766</ele><time>2026-08-20T09:18:36.000Z</time><extensions/></trkpt><trkpt lat="59.11317413672805" lon="30.501345321536064"><ele>62.619998931884766</ele><time>2026-08-20T09:18:59.000Z</time><extensions/></trkpt><trkpt lat="59.113277066498995" lon="30.50128505565226"><ele>62.619998931884766</ele><time>2026-08-20T09:19:16.000Z</time><extensions/></trkpt><trkpt lat="59.11331872455776" lon="30.50128656439483"><ele>62.619998931884766</ele><time>2026-08-20T09:19:35.000Z</time><extensions/></trkpt><trkpt lat="59.11344428546727" lon="30.501230154186487"><ele>62.619998931884766</ele><time>2026-08-20T09:19:55.000Z</time><extensions/></trkpt><trkpt lat="59.11371409893036" lon="30.501215988770127"><ele>62.619998931884766</ele><time>2026-08-20T09:20:20.000Z</time><extensions/></trkpt><trkpt lat="59.11385818384588" lon="30.501203248277307"><ele>63.099998474121094</ele><time>2026-08-20T09:20:39.000Z</time><extensions/></trkpt><trkpt lat="59.11395692266524" lon="30.501184137538075"><ele>63.099998474121094</ele><time>2026-08-20T09:20:52.000Z</time><extensions/></trkpt><trkpt lat="59.11402649246156" lon="30.501151280477643"><ele>63.099998474121094</ele><time>2026-08-20T09:21:12.000Z</time><extensions/></trkpt><trkpt lat="59.11415205337107" lon="30.501133678480983"><ele>63.58000183105469</ele><time>2026-08-20T09:21:34.000Z</time><extensions/></trkpt><trkpt lat="59.11426931619644" lon="30.50113208591938"><ele>63.099998474121094</ele><time>2026-08-20T09:21:52.000Z</time><extensions/></trkpt><trkpt lat="59.11429312080145" lon="30.501023372635245"><ele>63.58000183105469</ele><time>2026-08-20T09:22:09.000Z</time><extensions/></trkpt><trkpt lat="59.114291947335005" lon="30.500795552507043"><ele>63.58000183105469</ele><time>2026-08-20T09:22:27.000Z</time><extensions/></trkpt><trkpt lat="59.11425506696105" lon="30.500610396265984"><ele>63.58000183105469</ele><time>2026-08-20T09:22:45.000Z</time><extensions/></trkpt><trkpt lat="59.114238722249866" lon="30.500448290258646"><ele>63.58000183105469</ele><time>2026-08-20T09:23:02.000Z</time><extensions/></trkpt><trkpt lat="59.11425355821848" lon="30.500304540619254"><ele>63.58000183105469</ele><time>2026-08-20T09:23:25.000Z</time><extensions/></trkpt><trkpt lat="59.11428063176572" lon="30.500264391303062"><ele>63.58000183105469</ele><time>2026-08-20T09:23:54.000Z</time><extensions/></trkpt><trkpt lat="59.11427702754736" lon="30.50019834190607"><ele>63.58000183105469</ele><time>2026-08-20T09:24:14.000Z</time><extensions/></trkpt><trkpt lat="59.114248948171735" lon="30.500013856217265"><ele>63.58000183105469</ele><time>2026-08-20T09:24:29.000Z</time><extensions/></trkpt><trkpt lat="59.11423176527023" lon="30.499824173748493"><ele>63.099998474121094</ele><time>2026-08-20T09:24:51.000Z</time><extensions/></trkpt><trkpt lat="59.11420586518943" lon="30.49959635362029"><ele>63.58000183105469</ele><time>2026-08-20T09:25:09.000Z</time><extensions/></trkpt><trkpt lat="59.11417979747057" lon="30.499558551236987"><ele>63.58000183105469</ele><time>2026-08-20T09:25:31.000Z</time><extensions/></trkpt><trkpt lat="59.114142498001456" lon="30.499546146020293"><ele>63.58000183105469</ele><time>2026-08-20T09:25:57.000Z</time><extensions/></trkpt><trkpt lat="59.11419983021915" lon="30.499469954520464"><ele>63.58000183105469</ele><time>2026-08-20T09:26:18.000Z</time><extensions/></trkpt><trkpt lat="59.11416747607291" lon="30.499281277880073"><ele>64.06999969482422</ele><time>2026-08-20T09:26:33.000Z</time><extensions/></trkpt><trkpt lat="59.11417233757675" lon="30.498991180211306"><ele>64.06999969482422</ele><time>2026-08-20T09:26:59.000Z</time><extensions/></trkpt><trkpt lat="59.11416672170162" lon="30.498726898804307"><ele>64.06999969482422</ele><time>2026-08-20T09:27:17.000Z</time><extensions/></trkpt><trkpt lat="59.114139061421156" lon="30.49843629822135"><ele>64.55000305175781</ele><time>2026-08-20T09:27:46.000Z</time><extensions/></trkpt><trkpt lat="59.11410251632333" lon="30.49829858355224"><ele>64.55000305175781</ele><time>2026-08-20T09:28:09.000Z</time><extensions/></trkpt><trkpt lat="59.11405951716006" lon="30.498094651848078"><ele>64.55000305175781</ele><time>2026-08-20T09:28:35.000Z</time><extensions/></trkpt><trkpt lat="59.11405138671398" lon="30.49798049032688"><ele>64.55000305175781</ele><time>2026-08-20T09:29:07.000Z</time><extensions/></trkpt><trkpt lat="59.11405767314136" lon="30.49784855917096"><ele>64.55000305175781</ele><time>2026-08-20T09:29:28.000Z</time><extensions/></trkpt><trkpt lat="59.11408198066056" lon="30.49763599410653"><ele>64.55000305175781</ele><time>2026-08-20T09:29:45.000Z</time><extensions/></trkpt><trkpt lat="59.1140744369477" lon="30.49754655919969"><ele>64.55000305175781</ele><time>2026-08-20T09:30:03.000Z</time><extensions/></trkpt><trkpt lat="59.11406873725355" lon="30.497484281659126"><ele>64.55000305175781</ele><time>2026-08-20T09:30:32.000Z</time><extensions/></trkpt><trkpt lat="59.11406354047358" lon="30.49744195304811"><ele>64.55000305175781</ele><time>2026-08-20T09:30:52.000Z</time><extensions/></trkpt><trkpt lat="59.11407091654837" lon="30.497242296114564"><ele>64.55000305175781</ele><time>2026-08-20T09:31:11.000Z</time><extensions/></trkpt><trkpt lat="59.11406152881682" lon="30.496957143768668"><ele>64.55000305175781</ele><time>2026-08-20T09:31:32.000Z</time><extensions/></trkpt><trkpt lat="59.11401903256774" lon="30.496727228164673"><ele>64.06999969482422</ele><time>2026-08-20T09:31:54.000Z</time><extensions/></trkpt><trkpt lat="59.114058930426836" lon="30.49648323096335"><ele>64.06999969482422</ele><time>2026-08-20T09:32:11.000Z</time><extensions/></trkpt><trkpt lat="59.11404795013368" lon="30.49625457264483"><ele>64.06999969482422</ele><time>2026-08-20T09:32:35.000Z</time><extensions/></trkpt><trkpt lat="59.114049123600125" lon="30.496037984266877"><ele>64.06999969482422</ele><time>2026-08-20T09:32:54.000Z</time><extensions/></trkpt><trkpt lat="59.11400637589395" lon="30.495623080059886"><ele>64.06999969482422</ele><time>2026-08-20T09:33:16.000Z</time><extensions/></trkpt><trkpt lat="59.11396094597876" lon="30.495264250785112"><ele>64.55000305175781</ele><time>2026-08-20T09:33:36.000Z</time><extensions/></trkpt><trkpt lat="59.11396874114871" lon="30.49514045007527"><ele>64.06999969482422</ele><time>2026-08-20T09:33:53.000Z</time><extensions/></trkpt><trkpt lat="59.113967567682266" lon="30.495105162262917"><ele>64.06999969482422</ele><time>2026-08-20T09:34:16.000Z</time><extensions/></trkpt><trkpt lat="59.113933788612485" lon="30.49493132159114"><ele>64.06999969482422</ele><time>2026-08-20T09:34:35.000Z</time><extensions/></trkpt><trkpt lat="59.113930435851216" lon="30.49478287808597"><ele>63.58000183105469</ele><time>2026-08-20T09:34:56.000Z</time><extensions/></trkpt><trkpt lat="59.11392875947058" lon="30.494421031326056"><ele>64.06999969482422</ele><time>2026-08-20T09:35:16.000Z</time><extensions/></trkpt><trkpt lat="59.113896656781435" lon="30.494054155424237"><ele>64.06999969482422</ele><time>2026-08-20T09:35:36.000Z</time><extensions/></trkpt><trkpt lat="59.11388039588928" lon="30.493776462972164"><ele>64.06999969482422</ele><time>2026-08-20T09:35:55.000Z</time><extensions/></trkpt><trkpt lat="59.113878048956394" lon="30.49358225427568"><ele>64.06999969482422</ele><time>2026-08-20T09:36:13.000Z</time><extensions/></trkpt><trkpt lat="59.11388115026057" lon="30.493412856012583"><ele>63.58000183105469</ele><time>2026-08-20T09:36:27.000Z</time><extensions/></trkpt><trkpt lat="59.11384804174304" lon="30.493238596245646"><ele>64.06999969482422</ele><time>2026-08-20T09:36:44.000Z</time><extensions/></trkpt><trkpt lat="59.11384594626725" lon="30.49305251799524"><ele>64.06999969482422</ele><time>2026-08-20T09:37:03.000Z</time><extensions/></trkpt><trkpt lat="59.11379607394338" lon="30.492916479706764"><ele>63.58000183105469</ele><time>2026-08-20T09:37:19.000Z</time><extensions/></trkpt><trkpt lat="59.11379045806825" lon="30.492749344557524"><ele>63.58000183105469</ele><time>2026-08-20T09:37:34.000Z</time><extensions/></trkpt><trkpt lat="59.11378802731633" lon="30.49266309477389"><ele>63.58000183105469</ele><time>2026-08-20T09:37:54.000Z</time><extensions/></trkpt><trkpt lat="59.11379003897309" lon="30.492601487785578"><ele>63.58000183105469</ele><time>2026-08-20T09:38:14.000Z</time><extensions/></trkpt><trkpt lat="59.113818453624845" lon="30.492390347644687"><ele>63.58000183105469</ele><time>2026-08-20T09:38:32.000Z</time><extensions/></trkpt><trkpt lat="59.11377377808094" lon="30.492269564419985"><ele>64.06999969482422</ele><time>2026-08-20T09:38:49.000Z</time><extensions/></trkpt><trkpt lat="59.113754499703646" lon="30.49217644147575"><ele>64.06999969482422</ele><time>2026-08-20T09:39:04.000Z</time><extensions/></trkpt><trkpt lat="59.113766150549054" lon="30.492071332409978"><ele>63.58000183105469</ele><time>2026-08-20T09:39:21.000Z</time><extensions/></trkpt><trkpt lat="59.11374779418111" lon="30.491866059601307"><ele>63.58000183105469</ele><time>2026-08-20T09:39:40.000Z</time><extensions/></trkpt><trkpt lat="59.11373673006892" lon="30.49177872017026"><ele>63.58000183105469</ele><time>2026-08-20T09:40:00.000Z</time><extensions/></trkpt><trkpt lat="59.11372533068061" lon="30.491541177034378"><ele>64.06999969482422</ele><time>2026-08-20T09:40:23.000Z</time><extensions/></trkpt><trkpt lat="59.11371594294906" lon="30.491258455440402"><ele>63.58000183105469</ele><time>2026-08-20T09:40:41.000Z</time><extensions/></trkpt><trkpt lat="59.113700771704316" lon="30.490979924798012"><ele>63.58000183105469</ele><time>2026-08-20T09:41:00.000Z</time><extensions/></trkpt><trkpt lat="59.11368518136442" lon="30.490779262036085"><ele>63.58000183105469</ele><time>2026-08-20T09:41:19.000Z</time><extensions/></trkpt><trkpt lat="59.1136600356549" lon="30.4905903339386"><ele>63.58000183105469</ele><time>2026-08-20T09:41:37.000Z</time><extensions/></trkpt><trkpt lat="59.113636650145054" lon="30.490378942340612"><ele>63.58000183105469</ele><time>2026-08-20T09:41:55.000Z</time><extensions/></trkpt><trkpt lat="59.11358853802085" lon="30.490258829668164"><ele>63.58000183105469</ele><time>2026-08-20T09:42:12.000Z</time><extensions/></trkpt><trkpt lat="59.1135788988322" lon="30.49007593654096"><ele>63.58000183105469</ele><time>2026-08-20T09:42:30.000Z</time><extensions/></trkpt><trkpt lat="59.113553082570434" lon="30.489791873842478"><ele>63.58000183105469</ele><time>2026-08-20T09:42:52.000Z</time><extensions/></trkpt><trkpt lat="59.11352609284222" lon="30.489588947966695"><ele>63.58000183105469</ele><time>2026-08-20T09:43:11.000Z</time><extensions/></trkpt><trkpt lat="59.113561883568764" lon="30.489477133378386"><ele>63.58000183105469</ele><time>2026-08-20T09:43:28.000Z</time><extensions/></trkpt><trkpt lat="59.11351217888296" lon="30.48933807760477"><ele>63.58000183105469</ele><time>2026-08-20T09:43:45.000Z</time><extensions/></trkpt><trkpt lat="59.113441184163094" lon="30.489159375429153"><ele>63.58000183105469</ele><time>2026-08-20T09:43:58.000Z</time><extensions/></trkpt><trkpt lat="59.113415367901325" lon="30.489037418738008"><ele>63.58000183105469</ele><time>2026-08-20T09:44:04.000Z</time><extensions/></trkpt><trkpt lat="59.11335543729365" lon="30.48882309347391"><ele>63.58000183105469</ele><time>2026-08-20T09:44:12.000Z</time><extensions/></trkpt><trkpt lat="59.11323389969766" lon="30.48854162916541"><ele>63.58000183105469</ele><time>2026-08-20T09:44:26.000Z</time><extensions/></trkpt><trkpt lat="59.113152427598834" lon="30.488397544249892"><ele>63.099998474121094</ele><time>2026-08-20T09:44:43.000Z</time><extensions/></trkpt><trkpt lat="59.11315435543656" lon="30.48838807269931"><ele>63.099998474121094</ele><time>2026-08-20T09:45:07.000Z</time><extensions/></trkpt><trkpt lat="59.11315661855042" lon="30.488381031900644"><ele>63.58000183105469</ele><time>2026-08-20T09:45:30.000Z</time><extensions/></trkpt><trkpt lat="59.11316047422588" lon="30.48837348818779"><ele>63.58000183105469</ele><time>2026-08-20T09:45:56.000Z</time><extensions/></trkpt><trkpt lat="59.11316039040685" lon="30.48835345543921"><ele>63.58000183105469</ele><time>2026-08-20T09:46:28.000Z</time><extensions/></trkpt><trkpt lat="59.113165168091655" lon="30.48834658227861"><ele>63.58000183105469</ele><time>2026-08-20T09:46:51.000Z</time><extensions/></trkpt><trkpt lat="59.1131713707" lon="30.488353623077273"><ele>63.58000183105469</ele><time>2026-08-20T09:47:16.000Z</time><extensions/></trkpt><trkpt lat="59.113180339336395" lon="30.488348929211497"><ele>63.58000183105469</ele><time>2026-08-20T09:47:41.000Z</time><extensions/></trkpt><trkpt lat="59.113191068172455" lon="30.488338535651565"><ele>63.58000183105469</ele><time>2026-08-20T09:48:08.000Z</time><extensions/></trkpt><trkpt lat="59.11319768987596" lon="30.48833384178579"><ele>63.58000183105469</ele><time>2026-08-20T09:48:35.000Z</time><extensions/></trkpt><trkpt lat="59.11320146173239" lon="30.488333757966757"><ele>63.58000183105469</ele><time>2026-08-20T09:48:55.000Z</time><extensions/></trkpt><trkpt lat="59.11320053972304" lon="30.488329818472266"><ele>63.58000183105469</ele><time>2026-08-20T09:49:18.000Z</time><extensions/></trkpt><trkpt lat="59.113206658512354" lon="30.488321855664253"><ele>63.58000183105469</ele><time>2026-08-20T09:49:38.000Z</time><extensions/></trkpt><trkpt lat="59.11322744563222" lon="30.48828899860382"><ele>63.58000183105469</ele><time>2026-08-20T09:50:02.000Z</time><extensions/></trkpt><trkpt lat="59.11328041926026" lon="30.488258488476276"><ele>64.06999969482422</ele><time>2026-08-20T09:50:15.000Z</time><extensions/></trkpt><trkpt lat="59.11337295547128" lon="30.48821364529431"><ele>64.06999969482422</ele><time>2026-08-20T09:50:32.000Z</time><extensions/></trkpt><trkpt lat="59.11341612227261" lon="30.48819755204022"><ele>63.58000183105469</ele><time>2026-08-20T09:50:55.000Z</time><extensions/></trkpt><trkpt lat="59.113421654328704" lon="30.488192941993475"><ele>64.06999969482422</ele><time>2026-08-20T09:51:15.000Z</time><extensions/></trkpt><trkpt lat="59.11343162879348" lon="30.48810233362019"><ele>63.58000183105469</ele><time>2026-08-20T09:51:34.000Z</time><extensions/></trkpt><trkpt lat="59.11341235041618" lon="30.487791197374463"><ele>64.06999969482422</ele><time>2026-08-20T09:51:55.000Z</time><extensions/></trkpt><trkpt lat="59.11336423829198" lon="30.48741434700787"><ele>64.06999969482422</ele><time>2026-08-20T09:52:13.000Z</time><extensions/></trkpt><trkpt lat="59.11335225217044" lon="30.48720228485763"><ele>63.58000183105469</ele><time>2026-08-20T09:52:29.000Z</time><extensions/></trkpt><trkpt lat="59.113341020420194" lon="30.487161045894027"><ele>63.58000183105469</ele><time>2026-08-20T09:52:53.000Z</time><extensions/></trkpt><trkpt lat="59.11334361881018" lon="30.48714553937316"><ele>64.06999969482422</ele><time>2026-08-20T09:53:13.000Z</time><extensions/></trkpt><trkpt lat="59.113318054005504" lon="30.48679383471608"><ele>64.06999969482422</ele><time>2026-08-20T09:53:36.000Z</time><extensions/></trkpt><trkpt lat="59.11332467570901" lon="30.486470460891724"><ele>64.06999969482422</ele><time>2026-08-20T09:53:58.000Z</time><extensions/></trkpt><trkpt lat="59.1133198980242" lon="30.486067375168204"><ele>64.06999969482422</ele><time>2026-08-20T09:54:27.000Z</time><extensions/></trkpt><trkpt lat="59.11329248920083" lon="30.485824551433325"><ele>64.55000305175781</ele><time>2026-08-20T09:54:55.000Z</time><extensions/></trkpt><trkpt lat="59.11329441703856" lon="30.485818851739168"><ele>64.55000305175781</ele><time>2026-08-20T09:55:20.000Z</time><extensions/></trkpt><trkpt lat="59.11328938789666" lon="30.48561282455921"><ele>64.55000305175781</ele><time>2026-08-20T09:55:42.000Z</time><extensions/></trkpt><trkpt lat="59.11328963935375" lon="30.48538986593485"><ele>64.55000305175781</ele><time>2026-08-20T09:56:06.000Z</time><extensions/></trkpt><trkpt lat="59.11328217945993" lon="30.485278386622667"><ele>64.55000305175781</ele><time>2026-08-20T09:56:25.000Z</time><extensions/></trkpt><trkpt lat="59.113206658512354" lon="30.4849917255342"><ele>64.55000305175781</ele><time>2026-08-20T09:56:52.000Z</time><extensions/></trkpt><trkpt lat="59.11317438818514" lon="30.484815537929535"><ele>64.55000305175781</ele><time>2026-08-20T09:57:17.000Z</time><extensions/></trkpt><trkpt lat="59.113179417327046" lon="30.484633818268776"><ele>64.55000305175781</ele><time>2026-08-20T09:57:38.000Z</time><extensions/></trkpt><trkpt lat="59.11313524469733" lon="30.48420114442706"><ele>64.55000305175781</ele><time>2026-08-20T09:57:54.000Z</time><extensions/></trkpt><trkpt lat="59.11306684836745" lon="30.483371168375015"><ele>64.55000305175781</ele><time>2026-08-20T09:58:17.000Z</time><extensions/></trkpt><trkpt lat="59.11305922083557" lon="30.4830904584378"><ele>64.55000305175781</ele><time>2026-08-20T09:58:22.000Z</time><extensions/></trkpt><trkpt lat="59.11299602128565" lon="30.48286716453731"><ele>64.55000305175781</ele><time>2026-08-20T09:58:27.000Z</time><extensions/></trkpt><trkpt lat="59.112932067364454" lon="30.482428120449185"><ele>65.02999877929688</ele><time>2026-08-20T09:58:36.000Z</time><extensions/></trkpt><trkpt lat="59.11291882395744" lon="30.48217565752566"><ele>65.51000213623047</ele><time>2026-08-20T09:58:55.000Z</time><extensions/></trkpt><trkpt lat="59.11292494274676" lon="30.48215906135738"><ele>65.02999877929688</ele><time>2026-08-20T09:59:15.000Z</time><extensions/></trkpt><trkpt lat="59.112929636612535" lon="30.482153864577413"><ele>65.02999877929688</ele><time>2026-08-20T09:59:40.000Z</time><extensions/></trkpt><trkpt lat="59.11292703822255" lon="30.482142381370068"><ele>65.02999877929688</ele><time>2026-08-20T09:59:57.000Z</time><extensions/></trkpt><trkpt lat="59.1130106896162" lon="30.48211907967925"><ele>65.51000213623047</ele><time>2026-08-20T10:18:32.000Z</time><extensions/></trkpt><trkpt lat="59.11287632770836" lon="30.482119750231504"><ele>65.51000213623047</ele><time>2026-08-20T10:18:59.000Z</time><extensions/></trkpt><trkpt lat="59.11290935240686" lon="30.482079852372408"><ele>65.02999877929688</ele><time>2026-08-20T10:19:35.000Z</time><extensions/></trkpt><trkpt lat="59.11290658637881" lon="30.482081025838852"><ele>65.02999877929688</ele><time>2026-08-20T10:20:05.000Z</time><extensions/></trkpt><trkpt lat="59.11291278898716" lon="30.482070799916983"><ele>65.02999877929688</ele><time>2026-08-20T10:21:02.000Z</time><extensions/></trkpt><trkpt lat="59.112915471196175" lon="30.48206727951765"><ele>65.02999877929688</ele><time>2026-08-20T10:22:00.000Z</time><extensions/></trkpt><trkpt lat="59.11291387863457" lon="30.482085635885596"><ele>65.02999877929688</ele><time>2026-08-20T10:23:15.000Z</time><extensions/></trkpt><trkpt lat="59.11289602518082" lon="30.482062250375748"><ele>64.06999969482422</ele><time>2026-08-20T10:24:32.000Z</time><extensions/></trkpt><trkpt lat="59.11289434880018" lon="30.482037775218487"><ele>64.06999969482422</ele><time>2026-08-20T10:25:19.000Z</time><extensions/></trkpt><trkpt lat="59.11290348507464" lon="30.482061496004462"><ele>65.02999877929688</ele><time>2026-08-20T10:26:06.000Z</time><extensions/></trkpt><trkpt lat="59.112903233617544" lon="30.482081780210137"><ele>65.02999877929688</ele><time>2026-08-20T10:27:28.000Z</time><extensions/></trkpt><trkpt lat="59.112917399033904" lon="30.482068452984095"><ele>64.55000305175781</ele><time>2026-08-20T10:28:35.000Z</time><extensions/></trkpt><trkpt lat="59.11290197633207" lon="30.48208639025688"><ele>65.02999877929688</ele><time>2026-08-20T10:29:26.000Z</time><extensions/></trkpt><trkpt lat="59.1128986235708" lon="30.48209074884653"><ele>65.02999877929688</ele><time>2026-08-20T10:29:30.000Z</time><extensions/></trkpt></trkseg></trk></gpx>